<?xml version="1.0" encoding="UTF-8" standalone="no" ?>
<gpx xmlns="http://www.topografix.com/GPX/1/1" xmlns:xsi="http://www.w3.org/2001/XMLSchema-instance" xsi:schemaLocation="http://www.topografix.com/GPX/1/1 http://www.topografix.com/GPX/1/1/gpx.xsd" version="1.1" creator="VisuGPX - https://www.visugpx.com">
  <metadata>
    <name>Le Beaucet, charme et quiétude</name>
    <desc><![CDATA[à faire]]></desc>
  </metadata>
  <trk>
    <name><![CDATA[Le Beaucet, charme et quiétude]]></name>
    <trkseg>
      <trkpt lat="43.98339" lon="5.11907">
        <ele>246.189</ele>
        <time>2019-09-27T08:00:03Z</time>
      </trkpt>
      <trkpt lat="43.98339" lon="5.11907">
        <ele>246.806</ele>
        <time>2019-09-27T08:00:08Z</time>
      </trkpt>
      <trkpt lat="43.98347" lon="5.1191">
        <ele>249.326</ele>
        <time>2019-09-27T08:00:22Z</time>
      </trkpt>
      <trkpt lat="43.98344" lon="5.11912">
        <ele>248.608</ele>
        <time>2019-09-27T08:00:52Z</time>
      </trkpt>
      <trkpt lat="43.98343" lon="5.11907">
        <ele>248.192</ele>
        <time>2019-09-27T08:01:19Z</time>
      </trkpt>
      <trkpt lat="43.98342" lon="5.11906">
        <ele>248.149</ele>
        <time>2019-09-27T08:01:20Z</time>
      </trkpt>
      <trkpt lat="43.98341" lon="5.11905">
        <ele>248.145</ele>
        <time>2019-09-27T08:01:21Z</time>
      </trkpt>
      <trkpt lat="43.98335" lon="5.11905">
        <ele>248.026</ele>
        <time>2019-09-27T08:01:33Z</time>
      </trkpt>
      <trkpt lat="43.98337" lon="5.11909">
        <ele>248.069</ele>
        <time>2019-09-27T08:01:52Z</time>
      </trkpt>
      <trkpt lat="43.98338" lon="5.11909">
        <ele>248.659</ele>
        <time>2019-09-27T08:02:18Z</time>
      </trkpt>
      <trkpt lat="43.98338" lon="5.1191">
        <ele>248.191</ele>
        <time>2019-09-27T08:02:35Z</time>
      </trkpt>
      <trkpt lat="43.98338" lon="5.11909">
        <ele>248.393</ele>
        <time>2019-09-27T08:02:53Z</time>
      </trkpt>
      <trkpt lat="43.9834" lon="5.11912">
        <ele>248.372</ele>
        <time>2019-09-27T08:03:12Z</time>
      </trkpt>
      <trkpt lat="43.98342" lon="5.11914">
        <ele>248.313</ele>
        <time>2019-09-27T08:03:38Z</time>
      </trkpt>
      <trkpt lat="43.98339" lon="5.11913">
        <ele>248.314</ele>
        <time>2019-09-27T08:04:10Z</time>
      </trkpt>
      <trkpt lat="43.98335" lon="5.11906">
        <ele>248.308</ele>
        <time>2019-09-27T08:04:34Z</time>
      </trkpt>
      <trkpt lat="43.98337" lon="5.11905">
        <ele>248.311</ele>
        <time>2019-09-27T08:04:59Z</time>
      </trkpt>
      <trkpt lat="43.98337" lon="5.11906">
        <ele>248.348</ele>
        <time>2019-09-27T08:05:18Z</time>
      </trkpt>
      <trkpt lat="43.98338" lon="5.11907">
        <ele>248.334</ele>
        <time>2019-09-27T08:05:56Z</time>
      </trkpt>
      <trkpt lat="43.98338" lon="5.11909">
        <ele>248.315</ele>
        <time>2019-09-27T08:06:25Z</time>
      </trkpt>
      <trkpt lat="43.98338" lon="5.1191">
        <ele>248.398</ele>
        <time>2019-09-27T08:06:53Z</time>
      </trkpt>
      <trkpt lat="43.98338" lon="5.1191">
        <ele>248.358</ele>
        <time>2019-09-27T08:07:10Z</time>
      </trkpt>
      <trkpt lat="43.98337" lon="5.11909">
        <ele>248.37</ele>
        <time>2019-09-27T08:07:37Z</time>
      </trkpt>
      <trkpt lat="43.98337" lon="5.11909">
        <ele>248.372</ele>
        <time>2019-09-27T08:08:14Z</time>
      </trkpt>
      <trkpt lat="43.98337" lon="5.11909">
        <ele>248.344</ele>
        <time>2019-09-27T08:08:44Z</time>
      </trkpt>
      <trkpt lat="43.98334" lon="5.1191">
        <ele>248.305</ele>
        <time>2019-09-27T08:08:50Z</time>
      </trkpt>
      <trkpt lat="43.98333" lon="5.11911">
        <ele>248.315</ele>
        <time>2019-09-27T08:08:51Z</time>
      </trkpt>
      <trkpt lat="43.98332" lon="5.11911">
        <ele>248.308</ele>
        <time>2019-09-27T08:08:52Z</time>
      </trkpt>
      <trkpt lat="43.9832" lon="5.11919">
        <ele>248.348</ele>
        <time>2019-09-27T08:09:06Z</time>
      </trkpt>
      <trkpt lat="43.98315" lon="5.11929">
        <ele>249.885</ele>
        <time>2019-09-27T08:09:19Z</time>
      </trkpt>
      <trkpt lat="43.98314" lon="5.11929">
        <ele>252.831</ele>
        <time>2019-09-27T08:09:24Z</time>
      </trkpt>
      <trkpt lat="43.98314" lon="5.11929">
        <ele>253.042</ele>
        <time>2019-09-27T08:09:25Z</time>
      </trkpt>
      <trkpt lat="43.98315" lon="5.11932">
        <ele>250.675</ele>
        <time>2019-09-27T08:10:02Z</time>
      </trkpt>
      <trkpt lat="43.98315" lon="5.11933">
        <ele>250.375</ele>
        <time>2019-09-27T08:10:39Z</time>
      </trkpt>
      <trkpt lat="43.98314" lon="5.11932">
        <ele>250.677</ele>
        <time>2019-09-27T08:11:15Z</time>
      </trkpt>
      <trkpt lat="43.98315" lon="5.11932">
        <ele>250.679</ele>
        <time>2019-09-27T08:11:16Z</time>
      </trkpt>
      <trkpt lat="43.98328" lon="5.11931">
        <ele>250.685</ele>
        <time>2019-09-27T08:11:30Z</time>
      </trkpt>
      <trkpt lat="43.98331" lon="5.11929">
        <ele>250.689</ele>
        <time>2019-09-27T08:11:33Z</time>
      </trkpt>
      <trkpt lat="43.98333" lon="5.11929">
        <ele>250.617</ele>
        <time>2019-09-27T08:11:34Z</time>
      </trkpt>
      <trkpt lat="43.98334" lon="5.11928">
        <ele>250.108</ele>
        <time>2019-09-27T08:11:35Z</time>
      </trkpt>
      <trkpt lat="43.98337" lon="5.11924">
        <ele>250.032</ele>
        <time>2019-09-27T08:11:49Z</time>
      </trkpt>
      <trkpt lat="43.98342" lon="5.11923">
        <ele>250.039</ele>
        <time>2019-09-27T08:12:06Z</time>
      </trkpt>
      <trkpt lat="43.98345" lon="5.11922">
        <ele>250.085</ele>
        <time>2019-09-27T08:12:12Z</time>
      </trkpt>
      <trkpt lat="43.98347" lon="5.11921">
        <ele>250.176</ele>
        <time>2019-09-27T08:12:14Z</time>
      </trkpt>
      <trkpt lat="43.98348" lon="5.11921">
        <ele>250.839</ele>
        <time>2019-09-27T08:12:15Z</time>
      </trkpt>
      <trkpt lat="43.98352" lon="5.11921">
        <ele>252.379</ele>
        <time>2019-09-27T08:12:18Z</time>
      </trkpt>
      <trkpt lat="43.98362" lon="5.11917">
        <ele>252.011</ele>
        <time>2019-09-27T08:12:31Z</time>
      </trkpt>
      <trkpt lat="43.98364" lon="5.11917">
        <ele>252.053</ele>
        <time>2019-09-27T08:12:36Z</time>
      </trkpt>
      <trkpt lat="43.98365" lon="5.11917">
        <ele>252.031</ele>
        <time>2019-09-27T08:12:37Z</time>
      </trkpt>
      <trkpt lat="43.98366" lon="5.11917">
        <ele>251.861</ele>
        <time>2019-09-27T08:12:38Z</time>
      </trkpt>
      <trkpt lat="43.98368" lon="5.11917">
        <ele>251.807</ele>
        <time>2019-09-27T08:12:40Z</time>
      </trkpt>
      <trkpt lat="43.98389" lon="5.1192">
        <ele>251.608</ele>
        <time>2019-09-27T08:12:57Z</time>
      </trkpt>
      <trkpt lat="43.984" lon="5.11939">
        <ele>251.817</ele>
        <time>2019-09-27T08:13:13Z</time>
      </trkpt>
      <trkpt lat="43.98409" lon="5.11957">
        <ele>251.874</ele>
        <time>2019-09-27T08:13:30Z</time>
      </trkpt>
      <trkpt lat="43.9841" lon="5.11959">
        <ele>251.65</ele>
        <time>2019-09-27T08:13:31Z</time>
      </trkpt>
      <trkpt lat="43.9841" lon="5.1196">
        <ele>251.631</ele>
        <time>2019-09-27T08:13:32Z</time>
      </trkpt>
      <trkpt lat="43.98416" lon="5.11971">
        <ele>251.364</ele>
        <time>2019-09-27T08:13:43Z</time>
      </trkpt>
      <trkpt lat="43.98417" lon="5.11973">
        <ele>251.314</ele>
        <time>2019-09-27T08:13:44Z</time>
      </trkpt>
      <trkpt lat="43.98418" lon="5.11975">
        <ele>251.346</ele>
        <time>2019-09-27T08:13:45Z</time>
      </trkpt>
      <trkpt lat="43.98418" lon="5.11976">
        <ele>251.148</ele>
        <time>2019-09-27T08:13:46Z</time>
      </trkpt>
      <trkpt lat="43.98421" lon="5.11981">
        <ele>251.152</ele>
        <time>2019-09-27T08:14:00Z</time>
      </trkpt>
      <trkpt lat="43.98421" lon="5.1198">
        <ele>251.853</ele>
        <time>2019-09-27T08:14:22Z</time>
      </trkpt>
      <trkpt lat="43.98421" lon="5.1198">
        <ele>251.108</ele>
        <time>2019-09-27T08:14:55Z</time>
      </trkpt>
      <trkpt lat="43.98421" lon="5.11987">
        <ele>251.108</ele>
        <time>2019-09-27T08:15:33Z</time>
      </trkpt>
      <trkpt lat="43.98423" lon="5.11993">
        <ele>251.199</ele>
        <time>2019-09-27T08:15:38Z</time>
      </trkpt>
      <trkpt lat="43.98423" lon="5.11995">
        <ele>251.176</ele>
        <time>2019-09-27T08:15:39Z</time>
      </trkpt>
      <trkpt lat="43.98423" lon="5.11997">
        <ele>251.162</ele>
        <time>2019-09-27T08:15:40Z</time>
      </trkpt>
      <trkpt lat="43.98423" lon="5.11998">
        <ele>251.343</ele>
        <time>2019-09-27T08:15:41Z</time>
      </trkpt>
      <trkpt lat="43.98423" lon="5.12005">
        <ele>251.366</ele>
        <time>2019-09-27T08:15:54Z</time>
      </trkpt>
      <trkpt lat="43.98421" lon="5.12009">
        <ele>251.166</ele>
        <time>2019-09-27T08:15:58Z</time>
      </trkpt>
      <trkpt lat="43.98424" lon="5.12017">
        <ele>251.018</ele>
        <time>2019-09-27T08:16:11Z</time>
      </trkpt>
      <trkpt lat="43.98426" lon="5.12019">
        <ele>250.81</ele>
        <time>2019-09-27T08:16:38Z</time>
      </trkpt>
      <trkpt lat="43.98427" lon="5.12012">
        <ele>250.851</ele>
        <time>2019-09-27T08:17:00Z</time>
      </trkpt>
      <trkpt lat="43.98429" lon="5.12018">
        <ele>251.001</ele>
        <time>2019-09-27T08:17:29Z</time>
      </trkpt>
      <trkpt lat="43.98427" lon="5.12026">
        <ele>250.811</ele>
        <time>2019-09-27T08:17:38Z</time>
      </trkpt>
      <trkpt lat="43.98427" lon="5.12027">
        <ele>250.808</ele>
        <time>2019-09-27T08:17:39Z</time>
      </trkpt>
      <trkpt lat="43.98426" lon="5.12045">
        <ele>251.079</ele>
        <time>2019-09-27T08:17:55Z</time>
      </trkpt>
      <trkpt lat="43.98425" lon="5.12045">
        <ele>250.886</ele>
        <time>2019-09-27T08:18:17Z</time>
      </trkpt>
      <trkpt lat="43.98423" lon="5.12047">
        <ele>250.872</ele>
        <time>2019-09-27T08:18:44Z</time>
      </trkpt>
      <trkpt lat="43.9842" lon="5.12061">
        <ele>250.393</ele>
        <time>2019-09-27T08:18:59Z</time>
      </trkpt>
      <trkpt lat="43.98419" lon="5.12063">
        <ele>250.396</ele>
        <time>2019-09-27T08:19:00Z</time>
      </trkpt>
      <trkpt lat="43.98419" lon="5.12064">
        <ele>250.666</ele>
        <time>2019-09-27T08:19:01Z</time>
      </trkpt>
      <trkpt lat="43.98417" lon="5.12066">
        <ele>250.688</ele>
        <time>2019-09-27T08:19:02Z</time>
      </trkpt>
      <trkpt lat="43.98412" lon="5.12077">
        <ele>251.64</ele>
        <time>2019-09-27T08:19:14Z</time>
      </trkpt>
      <trkpt lat="43.98412" lon="5.1208">
        <ele>252.135</ele>
        <time>2019-09-27T08:19:30Z</time>
      </trkpt>
      <trkpt lat="43.98415" lon="5.1208">
        <ele>252.386</ele>
        <time>2019-09-27T08:19:40Z</time>
      </trkpt>
      <trkpt lat="43.98416" lon="5.1208">
        <ele>252.314</ele>
        <time>2019-09-27T08:19:41Z</time>
      </trkpt>
      <trkpt lat="43.98413" lon="5.12082">
        <ele>252.308</ele>
        <time>2019-09-27T08:19:54Z</time>
      </trkpt>
      <trkpt lat="43.9842" lon="5.12081">
        <ele>252.397</ele>
        <time>2019-09-27T08:20:05Z</time>
      </trkpt>
      <trkpt lat="43.98419" lon="5.12082">
        <ele>252.364</ele>
        <time>2019-09-27T08:20:06Z</time>
      </trkpt>
      <trkpt lat="43.98408" lon="5.12095">
        <ele>253.08</ele>
        <time>2019-09-27T08:20:20Z</time>
      </trkpt>
      <trkpt lat="43.98393" lon="5.12131">
        <ele>254.391</ele>
        <time>2019-09-27T08:20:45Z</time>
      </trkpt>
      <trkpt lat="43.98394" lon="5.12132">
        <ele>255.124</ele>
        <time>2019-09-27T08:20:47Z</time>
      </trkpt>
      <trkpt lat="43.98389" lon="5.12144">
        <ele>257.614</ele>
        <time>2019-09-27T08:21:00Z</time>
      </trkpt>
      <trkpt lat="43.98389" lon="5.12145">
        <ele>257.626</ele>
        <time>2019-09-27T08:21:01Z</time>
      </trkpt>
      <trkpt lat="43.98387" lon="5.1215">
        <ele>257.358</ele>
        <time>2019-09-27T08:21:04Z</time>
      </trkpt>
      <trkpt lat="43.98378" lon="5.12172">
        <ele>258.622</ele>
        <time>2019-09-27T08:21:25Z</time>
      </trkpt>
      <trkpt lat="43.98377" lon="5.12174">
        <ele>258.662</ele>
        <time>2019-09-27T08:21:26Z</time>
      </trkpt>
      <trkpt lat="43.98377" lon="5.12176">
        <ele>258.608</ele>
        <time>2019-09-27T08:21:27Z</time>
      </trkpt>
      <trkpt lat="43.98371" lon="5.1219">
        <ele>259.308</ele>
        <time>2019-09-27T08:21:37Z</time>
      </trkpt>
      <trkpt lat="43.98371" lon="5.12192">
        <ele>259.366</ele>
        <time>2019-09-27T08:21:38Z</time>
      </trkpt>
      <trkpt lat="43.98365" lon="5.12204">
        <ele>260.023</ele>
        <time>2019-09-27T08:21:47Z</time>
      </trkpt>
      <trkpt lat="43.98361" lon="5.12214">
        <ele>260.299</ele>
        <time>2019-09-27T08:21:55Z</time>
      </trkpt>
      <trkpt lat="43.98358" lon="5.12233">
        <ele>260.62</ele>
        <time>2019-09-27T08:22:09Z</time>
      </trkpt>
      <trkpt lat="43.98356" lon="5.12236">
        <ele>260.743</ele>
        <time>2019-09-27T08:22:11Z</time>
      </trkpt>
      <trkpt lat="43.98352" lon="5.12247">
        <ele>260.063</ele>
        <time>2019-09-27T08:22:25Z</time>
      </trkpt>
      <trkpt lat="43.98352" lon="5.12258">
        <ele>261.365</ele>
        <time>2019-09-27T08:22:32Z</time>
      </trkpt>
      <trkpt lat="43.98353" lon="5.1226">
        <ele>261.357</ele>
        <time>2019-09-27T08:22:33Z</time>
      </trkpt>
      <trkpt lat="43.98353" lon="5.1228">
        <ele>260.239</ele>
        <time>2019-09-27T08:22:44Z</time>
      </trkpt>
      <trkpt lat="43.98353" lon="5.12294">
        <ele>259.301</ele>
        <time>2019-09-27T08:22:53Z</time>
      </trkpt>
      <trkpt lat="43.98353" lon="5.12315">
        <ele>259.021</ele>
        <time>2019-09-27T08:23:07Z</time>
      </trkpt>
      <trkpt lat="43.98353" lon="5.12336">
        <ele>257.708</ele>
        <time>2019-09-27T08:23:22Z</time>
      </trkpt>
      <trkpt lat="43.9835" lon="5.12362">
        <ele>256.777</ele>
        <time>2019-09-27T08:23:40Z</time>
      </trkpt>
      <trkpt lat="43.98346" lon="5.12394">
        <ele>255.844</ele>
        <time>2019-09-27T08:24:02Z</time>
      </trkpt>
      <trkpt lat="43.98331" lon="5.12411">
        <ele>254.34</ele>
        <time>2019-09-27T08:24:21Z</time>
      </trkpt>
      <trkpt lat="43.9833" lon="5.12412">
        <ele>254.161</ele>
        <time>2019-09-27T08:24:22Z</time>
      </trkpt>
      <trkpt lat="43.98329" lon="5.12414">
        <ele>254.114</ele>
        <time>2019-09-27T08:24:23Z</time>
      </trkpt>
      <trkpt lat="43.98328" lon="5.12415">
        <ele>254.144</ele>
        <time>2019-09-27T08:24:24Z</time>
      </trkpt>
      <trkpt lat="43.98328" lon="5.12416">
        <ele>254.096</ele>
        <time>2019-09-27T08:24:25Z</time>
      </trkpt>
      <trkpt lat="43.98327" lon="5.12417">
        <ele>253.898</ele>
        <time>2019-09-27T08:24:26Z</time>
      </trkpt>
      <trkpt lat="43.98316" lon="5.12433">
        <ele>252.165</ele>
        <time>2019-09-27T08:24:40Z</time>
      </trkpt>
      <trkpt lat="43.98304" lon="5.12452">
        <ele>251.368</ele>
        <time>2019-09-27T08:24:54Z</time>
      </trkpt>
      <trkpt lat="43.98294" lon="5.12468">
        <ele>250.314</ele>
        <time>2019-09-27T08:25:10Z</time>
      </trkpt>
      <trkpt lat="43.9828" lon="5.12479">
        <ele>249.308</ele>
        <time>2019-09-27T08:25:26Z</time>
      </trkpt>
      <trkpt lat="43.98264" lon="5.12484">
        <ele>249.06</ele>
        <time>2019-09-27T08:25:41Z</time>
      </trkpt>
      <trkpt lat="43.98255" lon="5.12497">
        <ele>246.857</ele>
        <time>2019-09-27T08:25:58Z</time>
      </trkpt>
      <trkpt lat="43.98255" lon="5.12499">
        <ele>248.023</ele>
        <time>2019-09-27T08:26:12Z</time>
      </trkpt>
      <trkpt lat="43.98253" lon="5.125">
        <ele>247.094</ele>
        <time>2019-09-27T08:26:25Z</time>
      </trkpt>
      <trkpt lat="43.98253" lon="5.125">
        <ele>249.687</ele>
        <time>2019-09-27T08:26:30Z</time>
      </trkpt>
      <trkpt lat="43.98254" lon="5.125">
        <ele>248.127</ele>
        <time>2019-09-27T08:26:53Z</time>
      </trkpt>
      <trkpt lat="43.98256" lon="5.125">
        <ele>248.689</ele>
        <time>2019-09-27T08:26:55Z</time>
      </trkpt>
      <trkpt lat="43.98257" lon="5.125">
        <ele>249.141</ele>
        <time>2019-09-27T08:26:56Z</time>
      </trkpt>
      <trkpt lat="43.98259" lon="5.12499">
        <ele>249.828</ele>
        <time>2019-09-27T08:26:58Z</time>
      </trkpt>
      <trkpt lat="43.98262" lon="5.12499">
        <ele>250.089</ele>
        <time>2019-09-27T08:27:01Z</time>
      </trkpt>
      <trkpt lat="43.98282" lon="5.12491">
        <ele>247.617</ele>
        <time>2019-09-27T08:27:20Z</time>
      </trkpt>
      <trkpt lat="43.98303" lon="5.1248">
        <ele>246.808</ele>
        <time>2019-09-27T08:27:40Z</time>
      </trkpt>
      <trkpt lat="43.98325" lon="5.12466">
        <ele>245.336</ele>
        <time>2019-09-27T08:28:01Z</time>
      </trkpt>
      <trkpt lat="43.98327" lon="5.12474">
        <ele>245.013</ele>
        <time>2019-09-27T08:28:18Z</time>
      </trkpt>
      <trkpt lat="43.98326" lon="5.12491">
        <ele>241.869</ele>
        <time>2019-09-27T08:28:35Z</time>
      </trkpt>
      <trkpt lat="43.98328" lon="5.12524">
        <ele>239.36</ele>
        <time>2019-09-27T08:29:00Z</time>
      </trkpt>
      <trkpt lat="43.98335" lon="5.12558">
        <ele>239.843</ele>
        <time>2019-09-27T08:29:26Z</time>
      </trkpt>
      <trkpt lat="43.98333" lon="5.12587">
        <ele>242.093</ele>
        <time>2019-09-27T08:29:53Z</time>
      </trkpt>
      <trkpt lat="43.98333" lon="5.12596">
        <ele>242.015</ele>
        <time>2019-09-27T08:30:02Z</time>
      </trkpt>
      <trkpt lat="43.98334" lon="5.12597">
        <ele>244.327</ele>
        <time>2019-09-27T08:30:06Z</time>
      </trkpt>
      <trkpt lat="43.98334" lon="5.12626">
        <ele>244.364</ele>
        <time>2019-09-27T08:30:35Z</time>
      </trkpt>
      <trkpt lat="43.98327" lon="5.12655">
        <ele>244.306</ele>
        <time>2019-09-27T08:30:59Z</time>
      </trkpt>
      <trkpt lat="43.98329" lon="5.12663">
        <ele>248.616</ele>
        <time>2019-09-27T08:31:06Z</time>
      </trkpt>
      <trkpt lat="43.98329" lon="5.12665">
        <ele>248.608</ele>
        <time>2019-09-27T08:31:07Z</time>
      </trkpt>
      <trkpt lat="43.98337" lon="5.12696">
        <ele>249.69</ele>
        <time>2019-09-27T08:31:34Z</time>
      </trkpt>
      <trkpt lat="43.98333" lon="5.12718">
        <ele>251.137</ele>
        <time>2019-09-27T08:32:00Z</time>
      </trkpt>
      <trkpt lat="43.98329" lon="5.12722">
        <ele>251.073</ele>
        <time>2019-09-27T08:32:23Z</time>
      </trkpt>
      <trkpt lat="43.98333" lon="5.12728">
        <ele>251.014</ele>
        <time>2019-09-27T08:32:50Z</time>
      </trkpt>
      <trkpt lat="43.98334" lon="5.12735">
        <ele>250.647</ele>
        <time>2019-09-27T08:33:13Z</time>
      </trkpt>
      <trkpt lat="43.98333" lon="5.12752">
        <ele>250.147</ele>
        <time>2019-09-27T08:33:31Z</time>
      </trkpt>
      <trkpt lat="43.98334" lon="5.12774">
        <ele>251.099</ele>
        <time>2019-09-27T08:33:54Z</time>
      </trkpt>
      <trkpt lat="43.9834" lon="5.12791">
        <ele>249.631</ele>
        <time>2019-09-27T08:34:16Z</time>
      </trkpt>
      <trkpt lat="43.98335" lon="5.12812">
        <ele>249.154</ele>
        <time>2019-09-27T08:34:40Z</time>
      </trkpt>
      <trkpt lat="43.9833" lon="5.12826">
        <ele>249.856</ele>
        <time>2019-09-27T08:34:56Z</time>
      </trkpt>
      <trkpt lat="43.98331" lon="5.12836">
        <ele>250.311</ele>
        <time>2019-09-27T08:35:21Z</time>
      </trkpt>
      <trkpt lat="43.98336" lon="5.12852">
        <ele>250.808</ele>
        <time>2019-09-27T08:35:37Z</time>
      </trkpt>
      <trkpt lat="43.98332" lon="5.12868">
        <ele>254.039</ele>
        <time>2019-09-27T08:36:02Z</time>
      </trkpt>
      <trkpt lat="43.98319" lon="5.12885">
        <ele>255.896</ele>
        <time>2019-09-27T08:36:28Z</time>
      </trkpt>
      <trkpt lat="43.98309" lon="5.12913">
        <ele>258.052</ele>
        <time>2019-09-27T08:36:57Z</time>
      </trkpt>
      <trkpt lat="43.98312" lon="5.12925">
        <ele>259.713</ele>
        <time>2019-09-27T08:37:24Z</time>
      </trkpt>
      <trkpt lat="43.98319" lon="5.12935">
        <ele>263.286</ele>
        <time>2019-09-27T08:37:49Z</time>
      </trkpt>
      <trkpt lat="43.9832" lon="5.12935">
        <ele>263.666</ele>
        <time>2019-09-27T08:37:50Z</time>
      </trkpt>
      <trkpt lat="43.98326" lon="5.12932">
        <ele>265.088</ele>
        <time>2019-09-27T08:38:10Z</time>
      </trkpt>
      <trkpt lat="43.98326" lon="5.12937">
        <ele>267.67</ele>
        <time>2019-09-27T08:38:31Z</time>
      </trkpt>
      <trkpt lat="43.98324" lon="5.12956">
        <ele>269.731</ele>
        <time>2019-09-27T08:38:54Z</time>
      </trkpt>
      <trkpt lat="43.98323" lon="5.12958">
        <ele>270.361</ele>
        <time>2019-09-27T08:39:13Z</time>
      </trkpt>
      <trkpt lat="43.98327" lon="5.12964">
        <ele>271.007</ele>
        <time>2019-09-27T08:39:31Z</time>
      </trkpt>
      <trkpt lat="43.98334" lon="5.12967">
        <ele>273.208</ele>
        <time>2019-09-27T08:39:50Z</time>
      </trkpt>
      <trkpt lat="43.98338" lon="5.12971">
        <ele>275.647</ele>
        <time>2019-09-27T08:40:17Z</time>
      </trkpt>
      <trkpt lat="43.98344" lon="5.12985">
        <ele>276.284</ele>
        <time>2019-09-27T08:40:38Z</time>
      </trkpt>
      <trkpt lat="43.9834" lon="5.13004">
        <ele>279.33</ele>
        <time>2019-09-27T08:40:59Z</time>
      </trkpt>
      <trkpt lat="43.9833" lon="5.13025">
        <ele>281.781</ele>
        <time>2019-09-27T08:41:23Z</time>
      </trkpt>
      <trkpt lat="43.98327" lon="5.1305">
        <ele>285.054</ele>
        <time>2019-09-27T08:41:50Z</time>
      </trkpt>
      <trkpt lat="43.98329" lon="5.13066">
        <ele>288.214</ele>
        <time>2019-09-27T08:42:14Z</time>
      </trkpt>
      <trkpt lat="43.98334" lon="5.13075">
        <ele>289.756</ele>
        <time>2019-09-27T08:42:43Z</time>
      </trkpt>
      <trkpt lat="43.98347" lon="5.13091">
        <ele>292.058</ele>
        <time>2019-09-27T08:43:10Z</time>
      </trkpt>
      <trkpt lat="43.98347" lon="5.1311">
        <ele>294.794</ele>
        <time>2019-09-27T08:43:36Z</time>
      </trkpt>
      <trkpt lat="43.98351" lon="5.13118">
        <ele>296.757</ele>
        <time>2019-09-27T08:43:57Z</time>
      </trkpt>
      <trkpt lat="43.9836" lon="5.13119">
        <ele>298.322</ele>
        <time>2019-09-27T08:44:11Z</time>
      </trkpt>
      <trkpt lat="43.98363" lon="5.13127">
        <ele>300.008</ele>
        <time>2019-09-27T08:44:34Z</time>
      </trkpt>
      <trkpt lat="43.98362" lon="5.13151">
        <ele>300.283</ele>
        <time>2019-09-27T08:44:54Z</time>
      </trkpt>
      <trkpt lat="43.98359" lon="5.13172">
        <ele>300.39</ele>
        <time>2019-09-27T08:45:13Z</time>
      </trkpt>
      <trkpt lat="43.98358" lon="5.13178">
        <ele>299.716</ele>
        <time>2019-09-27T08:45:31Z</time>
      </trkpt>
      <trkpt lat="43.98355" lon="5.13178">
        <ele>299.747</ele>
        <time>2019-09-27T08:45:52Z</time>
      </trkpt>
      <trkpt lat="43.98354" lon="5.13185">
        <ele>299.72</ele>
        <time>2019-09-27T08:46:15Z</time>
      </trkpt>
      <trkpt lat="43.98354" lon="5.13185">
        <ele>302.33</ele>
        <time>2019-09-27T08:46:25Z</time>
      </trkpt>
      <trkpt lat="43.98353" lon="5.13186">
        <ele>302.632</ele>
        <time>2019-09-27T08:47:03Z</time>
      </trkpt>
      <trkpt lat="43.98353" lon="5.13187">
        <ele>302.614</ele>
        <time>2019-09-27T08:47:30Z</time>
      </trkpt>
      <trkpt lat="43.98354" lon="5.13187">
        <ele>302.621</ele>
        <time>2019-09-27T08:47:59Z</time>
      </trkpt>
      <trkpt lat="43.98354" lon="5.13185">
        <ele>302.641</ele>
        <time>2019-09-27T08:48:17Z</time>
      </trkpt>
      <trkpt lat="43.98354" lon="5.13184">
        <ele>302.605</ele>
        <time>2019-09-27T08:48:42Z</time>
      </trkpt>
      <trkpt lat="43.98346" lon="5.13179">
        <ele>302.308</ele>
        <time>2019-09-27T08:49:19Z</time>
      </trkpt>
      <trkpt lat="43.98336" lon="5.13178">
        <ele>302.286</ele>
        <time>2019-09-27T08:49:35Z</time>
      </trkpt>
      <trkpt lat="43.98319" lon="5.13182">
        <ele>300.383</ele>
        <time>2019-09-27T08:49:58Z</time>
      </trkpt>
      <trkpt lat="43.98297" lon="5.13198">
        <ele>297.369</ele>
        <time>2019-09-27T08:50:24Z</time>
      </trkpt>
      <trkpt lat="43.98286" lon="5.13207">
        <ele>296.26</ele>
        <time>2019-09-27T08:50:36Z</time>
      </trkpt>
      <trkpt lat="43.98275" lon="5.13212">
        <ele>295.073</ele>
        <time>2019-09-27T08:50:52Z</time>
      </trkpt>
      <trkpt lat="43.98261" lon="5.13213">
        <ele>294.253</ele>
        <time>2019-09-27T08:51:10Z</time>
      </trkpt>
      <trkpt lat="43.98249" lon="5.13213">
        <ele>292.645</ele>
        <time>2019-09-27T08:51:28Z</time>
      </trkpt>
      <trkpt lat="43.98234" lon="5.13213">
        <ele>291.317</ele>
        <time>2019-09-27T08:51:47Z</time>
      </trkpt>
      <trkpt lat="43.98216" lon="5.13219">
        <ele>290.339</ele>
        <time>2019-09-27T08:52:08Z</time>
      </trkpt>
      <trkpt lat="43.98202" lon="5.1323">
        <ele>289.001</ele>
        <time>2019-09-27T08:52:26Z</time>
      </trkpt>
      <trkpt lat="43.98189" lon="5.13244">
        <ele>286.221</ele>
        <time>2019-09-27T08:52:47Z</time>
      </trkpt>
      <trkpt lat="43.98177" lon="5.13255">
        <ele>284.608</ele>
        <time>2019-09-27T08:53:10Z</time>
      </trkpt>
      <trkpt lat="43.98157" lon="5.13265">
        <ele>283.617</ele>
        <time>2019-09-27T08:53:36Z</time>
      </trkpt>
      <trkpt lat="43.98138" lon="5.13271">
        <ele>280.644</ele>
        <time>2019-09-27T08:54:02Z</time>
      </trkpt>
      <trkpt lat="43.98121" lon="5.13273">
        <ele>279.23</ele>
        <time>2019-09-27T08:54:28Z</time>
      </trkpt>
      <trkpt lat="43.98119" lon="5.13272">
        <ele>278.321</ele>
        <time>2019-09-27T08:54:46Z</time>
      </trkpt>
      <trkpt lat="43.98118" lon="5.13271">
        <ele>278.084</ele>
        <time>2019-09-27T08:55:00Z</time>
      </trkpt>
      <trkpt lat="43.98114" lon="5.1327">
        <ele>278.054</ele>
        <time>2019-09-27T08:55:36Z</time>
      </trkpt>
      <trkpt lat="43.98101" lon="5.13273">
        <ele>276.686</ele>
        <time>2019-09-27T08:55:57Z</time>
      </trkpt>
      <trkpt lat="43.98094" lon="5.13284">
        <ele>273.688</ele>
        <time>2019-09-27T08:56:17Z</time>
      </trkpt>
      <trkpt lat="43.98086" lon="5.13289">
        <ele>272.247</ele>
        <time>2019-09-27T08:56:35Z</time>
      </trkpt>
      <trkpt lat="43.98069" lon="5.13298">
        <ele>271.029</ele>
        <time>2019-09-27T08:57:02Z</time>
      </trkpt>
      <trkpt lat="43.98055" lon="5.13304">
        <ele>270.721</ele>
        <time>2019-09-27T08:57:24Z</time>
      </trkpt>
      <trkpt lat="43.98045" lon="5.13295">
        <ele>270.608</ele>
        <time>2019-09-27T08:57:50Z</time>
      </trkpt>
      <trkpt lat="43.98043" lon="5.13295">
        <ele>274.048</ele>
        <time>2019-09-27T08:58:03Z</time>
      </trkpt>
      <trkpt lat="43.9804" lon="5.13298">
        <ele>273.225</ele>
        <time>2019-09-27T08:58:10Z</time>
      </trkpt>
      <trkpt lat="43.9803" lon="5.13302">
        <ele>273.211</ele>
        <time>2019-09-27T08:58:26Z</time>
      </trkpt>
      <trkpt lat="43.98025" lon="5.13307">
        <ele>275.682</ele>
        <time>2019-09-27T08:58:53Z</time>
      </trkpt>
      <trkpt lat="43.98016" lon="5.13312">
        <ele>277.035</ele>
        <time>2019-09-27T08:59:23Z</time>
      </trkpt>
      <trkpt lat="43.98007" lon="5.13323">
        <ele>279.665</ele>
        <time>2019-09-27T08:59:44Z</time>
      </trkpt>
      <trkpt lat="43.98007" lon="5.13324">
        <ele>280.677</ele>
        <time>2019-09-27T09:00:12Z</time>
      </trkpt>
      <trkpt lat="43.97997" lon="5.13328">
        <ele>281.799</ele>
        <time>2019-09-27T09:00:34Z</time>
      </trkpt>
      <trkpt lat="43.97996" lon="5.1333">
        <ele>283.084</ele>
        <time>2019-09-27T09:01:10Z</time>
      </trkpt>
      <trkpt lat="43.97987" lon="5.1333">
        <ele>284.307</ele>
        <time>2019-09-27T09:01:40Z</time>
      </trkpt>
      <trkpt lat="43.97978" lon="5.13334">
        <ele>286.317</ele>
        <time>2019-09-27T09:02:00Z</time>
      </trkpt>
      <trkpt lat="43.97971" lon="5.13336">
        <ele>288.608</ele>
        <time>2019-09-27T09:02:21Z</time>
      </trkpt>
      <trkpt lat="43.97959" lon="5.13338">
        <ele>291.642</ele>
        <time>2019-09-27T09:02:41Z</time>
      </trkpt>
      <trkpt lat="43.9795" lon="5.13337">
        <ele>294.619</ele>
        <time>2019-09-27T09:03:00Z</time>
      </trkpt>
      <trkpt lat="43.97937" lon="5.13336">
        <ele>297.055</ele>
        <time>2019-09-27T09:03:22Z</time>
      </trkpt>
      <trkpt lat="43.97924" lon="5.13324">
        <ele>299.216</ele>
        <time>2019-09-27T09:03:46Z</time>
      </trkpt>
      <trkpt lat="43.9792" lon="5.13317">
        <ele>300.689</ele>
        <time>2019-09-27T09:04:05Z</time>
      </trkpt>
      <trkpt lat="43.97913" lon="5.13315">
        <ele>301.249</ele>
        <time>2019-09-27T09:04:33Z</time>
      </trkpt>
      <trkpt lat="43.97913" lon="5.13315">
        <ele>301.261</ele>
        <time>2019-09-27T09:04:34Z</time>
      </trkpt>
      <trkpt lat="43.97912" lon="5.13315">
        <ele>301.353</ele>
        <time>2019-09-27T09:04:35Z</time>
      </trkpt>
      <trkpt lat="43.97894" lon="5.13319">
        <ele>301.078</ele>
        <time>2019-09-27T09:04:55Z</time>
      </trkpt>
      <trkpt lat="43.97891" lon="5.1332">
        <ele>300.733</ele>
        <time>2019-09-27T09:04:58Z</time>
      </trkpt>
      <trkpt lat="43.97874" lon="5.13323">
        <ele>300.326</ele>
        <time>2019-09-27T09:05:15Z</time>
      </trkpt>
      <trkpt lat="43.9786" lon="5.13325">
        <ele>300.208</ele>
        <time>2019-09-27T09:05:29Z</time>
      </trkpt>
      <trkpt lat="43.97845" lon="5.13328">
        <ele>299.791</ele>
        <time>2019-09-27T09:05:44Z</time>
      </trkpt>
      <trkpt lat="43.97827" lon="5.13333">
        <ele>299.318</ele>
        <time>2019-09-27T09:06:06Z</time>
      </trkpt>
      <trkpt lat="43.97807" lon="5.13341">
        <ele>298.364</ele>
        <time>2019-09-27T09:06:29Z</time>
      </trkpt>
      <trkpt lat="43.97788" lon="5.1335">
        <ele>297.795</ele>
        <time>2019-09-27T09:06:50Z</time>
      </trkpt>
      <trkpt lat="43.9777" lon="5.13355">
        <ele>296.698</ele>
        <time>2019-09-27T09:07:09Z</time>
      </trkpt>
      <trkpt lat="43.9775" lon="5.13362">
        <ele>296.058</ele>
        <time>2019-09-27T09:07:29Z</time>
      </trkpt>
      <trkpt lat="43.97734" lon="5.13374">
        <ele>295.68</ele>
        <time>2019-09-27T09:07:47Z</time>
      </trkpt>
      <trkpt lat="43.97719" lon="5.13385">
        <ele>294.742</ele>
        <time>2019-09-27T09:08:03Z</time>
      </trkpt>
      <trkpt lat="43.97705" lon="5.13409">
        <ele>294.084</ele>
        <time>2019-09-27T09:08:23Z</time>
      </trkpt>
      <trkpt lat="43.97691" lon="5.1343">
        <ele>294.307</ele>
        <time>2019-09-27T09:08:42Z</time>
      </trkpt>
      <trkpt lat="43.97689" lon="5.13432">
        <ele>294.317</ele>
        <time>2019-09-27T09:08:57Z</time>
      </trkpt>
      <trkpt lat="43.9769" lon="5.13432">
        <ele>295.208</ele>
        <time>2019-09-27T09:09:05Z</time>
      </trkpt>
      <trkpt lat="43.97684" lon="5.13442">
        <ele>294.642</ele>
        <time>2019-09-27T09:09:20Z</time>
      </trkpt>
      <trkpt lat="43.97674" lon="5.13456">
        <ele>294.289</ele>
        <time>2019-09-27T09:09:37Z</time>
      </trkpt>
      <trkpt lat="43.97663" lon="5.13458">
        <ele>293.765</ele>
        <time>2019-09-27T09:09:51Z</time>
      </trkpt>
      <trkpt lat="43.97654" lon="5.13452">
        <ele>293.766</ele>
        <time>2019-09-27T09:10:07Z</time>
      </trkpt>
      <trkpt lat="43.97653" lon="5.13442">
        <ele>294.029</ele>
        <time>2019-09-27T09:10:24Z</time>
      </trkpt>
      <trkpt lat="43.97654" lon="5.13436">
        <ele>294.259</ele>
        <time>2019-09-27T09:10:38Z</time>
      </trkpt>
      <trkpt lat="43.97655" lon="5.13435">
        <ele>295.021</ele>
        <time>2019-09-27T09:10:40Z</time>
      </trkpt>
      <trkpt lat="43.97652" lon="5.13423">
        <ele>293.773</ele>
        <time>2019-09-27T09:10:55Z</time>
      </trkpt>
      <trkpt lat="43.97648" lon="5.13425">
        <ele>294.243</ele>
        <time>2019-09-27T09:11:14Z</time>
      </trkpt>
      <trkpt lat="43.97648" lon="5.13416">
        <ele>294.764</ele>
        <time>2019-09-27T09:11:37Z</time>
      </trkpt>
      <trkpt lat="43.97645" lon="5.13414">
        <ele>293.71</ele>
        <time>2019-09-27T09:11:53Z</time>
      </trkpt>
      <trkpt lat="43.97641" lon="5.13417">
        <ele>296.608</ele>
        <time>2019-09-27T09:12:10Z</time>
      </trkpt>
      <trkpt lat="43.97631" lon="5.13427">
        <ele>296.678</ele>
        <time>2019-09-27T09:12:26Z</time>
      </trkpt>
      <trkpt lat="43.97621" lon="5.1344">
        <ele>297.285</ele>
        <time>2019-09-27T09:12:40Z</time>
      </trkpt>
      <trkpt lat="43.97613" lon="5.13457">
        <ele>297.741</ele>
        <time>2019-09-27T09:12:55Z</time>
      </trkpt>
      <trkpt lat="43.97604" lon="5.13473">
        <ele>300.052</ele>
        <time>2019-09-27T09:13:14Z</time>
      </trkpt>
      <trkpt lat="43.97595" lon="5.13491">
        <ele>302.315</ele>
        <time>2019-09-27T09:13:33Z</time>
      </trkpt>
      <trkpt lat="43.97585" lon="5.13514">
        <ele>305.275</ele>
        <time>2019-09-27T09:13:57Z</time>
      </trkpt>
      <trkpt lat="43.97577" lon="5.1353">
        <ele>306.787</ele>
        <time>2019-09-27T09:14:14Z</time>
      </trkpt>
      <trkpt lat="43.97568" lon="5.13551">
        <ele>309.099</ele>
        <time>2019-09-27T09:14:33Z</time>
      </trkpt>
      <trkpt lat="43.97564" lon="5.13561">
        <ele>310.394</ele>
        <time>2019-09-27T09:14:51Z</time>
      </trkpt>
      <trkpt lat="43.97562" lon="5.13565">
        <ele>311.657</ele>
        <time>2019-09-27T09:15:15Z</time>
      </trkpt>
      <trkpt lat="43.97563" lon="5.13566">
        <ele>312.222</ele>
        <time>2019-09-27T09:15:46Z</time>
      </trkpt>
      <trkpt lat="43.97562" lon="5.13565">
        <ele>312.208</ele>
        <time>2019-09-27T09:15:49Z</time>
      </trkpt>
      <trkpt lat="43.97559" lon="5.13574">
        <ele>312.633</ele>
        <time>2019-09-27T09:16:07Z</time>
      </trkpt>
      <trkpt lat="43.9755" lon="5.13587">
        <ele>313.06</ele>
        <time>2019-09-27T09:16:21Z</time>
      </trkpt>
      <trkpt lat="43.97547" lon="5.13594">
        <ele>313.636</ele>
        <time>2019-09-27T09:16:27Z</time>
      </trkpt>
      <trkpt lat="43.97537" lon="5.13606">
        <ele>315.097</ele>
        <time>2019-09-27T09:16:42Z</time>
      </trkpt>
      <trkpt lat="43.97529" lon="5.1362">
        <ele>316.74</ele>
        <time>2019-09-27T09:16:57Z</time>
      </trkpt>
      <trkpt lat="43.97522" lon="5.13632">
        <ele>318.21</ele>
        <time>2019-09-27T09:17:09Z</time>
      </trkpt>
      <trkpt lat="43.97512" lon="5.13644">
        <ele>321.222</ele>
        <time>2019-09-27T09:17:26Z</time>
      </trkpt>
      <trkpt lat="43.97501" lon="5.13654">
        <ele>324.364</ele>
        <time>2019-09-27T09:17:50Z</time>
      </trkpt>
      <trkpt lat="43.97492" lon="5.13658">
        <ele>326.222</ele>
        <time>2019-09-27T09:18:17Z</time>
      </trkpt>
      <trkpt lat="43.97481" lon="5.13665">
        <ele>329.362</ele>
        <time>2019-09-27T09:18:34Z</time>
      </trkpt>
      <trkpt lat="43.97467" lon="5.13676">
        <ele>332.608</ele>
        <time>2019-09-27T09:18:54Z</time>
      </trkpt>
      <trkpt lat="43.97449" lon="5.1368">
        <ele>335.608</ele>
        <time>2019-09-27T09:19:17Z</time>
      </trkpt>
      <trkpt lat="43.97434" lon="5.13682">
        <ele>338.646</ele>
        <time>2019-09-27T09:19:37Z</time>
      </trkpt>
      <trkpt lat="43.97418" lon="5.13686">
        <ele>341.753</ele>
        <time>2019-09-27T09:19:58Z</time>
      </trkpt>
      <trkpt lat="43.97403" lon="5.1369">
        <ele>344.739</ele>
        <time>2019-09-27T09:20:19Z</time>
      </trkpt>
      <trkpt lat="43.97386" lon="5.13697">
        <ele>347.73</ele>
        <time>2019-09-27T09:20:43Z</time>
      </trkpt>
      <trkpt lat="43.97368" lon="5.13702">
        <ele>351.023</ele>
        <time>2019-09-27T09:21:05Z</time>
      </trkpt>
      <trkpt lat="43.97348" lon="5.13705">
        <ele>353.763</ele>
        <time>2019-09-27T09:21:29Z</time>
      </trkpt>
      <trkpt lat="43.97336" lon="5.13707">
        <ele>355.285</ele>
        <time>2019-09-27T09:21:46Z</time>
      </trkpt>
      <trkpt lat="43.9733" lon="5.13706">
        <ele>356.287</ele>
        <time>2019-09-27T09:22:05Z</time>
      </trkpt>
      <trkpt lat="43.9733" lon="5.13706">
        <ele>356.678</ele>
        <time>2019-09-27T09:22:32Z</time>
      </trkpt>
      <trkpt lat="43.97326" lon="5.13706">
        <ele>357.233</ele>
        <time>2019-09-27T09:23:06Z</time>
      </trkpt>
      <trkpt lat="43.97308" lon="5.13713">
        <ele>359.226</ele>
        <time>2019-09-27T09:23:27Z</time>
      </trkpt>
      <trkpt lat="43.97296" lon="5.13718">
        <ele>359.608</ele>
        <time>2019-09-27T09:23:46Z</time>
      </trkpt>
      <trkpt lat="43.97283" lon="5.13722">
        <ele>359.651</ele>
        <time>2019-09-27T09:24:11Z</time>
      </trkpt>
      <trkpt lat="43.97274" lon="5.13734">
        <ele>360.088</ele>
        <time>2019-09-27T09:24:33Z</time>
      </trkpt>
      <trkpt lat="43.97274" lon="5.13733">
        <ele>361.384</ele>
        <time>2019-09-27T09:25:04Z</time>
      </trkpt>
      <trkpt lat="43.97274" lon="5.13733">
        <ele>362.665</ele>
        <time>2019-09-27T09:25:15Z</time>
      </trkpt>
      <trkpt lat="43.97267" lon="5.13726">
        <ele>363.318</ele>
        <time>2019-09-27T09:25:44Z</time>
      </trkpt>
      <trkpt lat="43.97256" lon="5.13726">
        <ele>364.248</ele>
        <time>2019-09-27T09:25:59Z</time>
      </trkpt>
      <trkpt lat="43.97244" lon="5.13729">
        <ele>366.06</ele>
        <time>2019-09-27T09:26:15Z</time>
      </trkpt>
      <trkpt lat="43.9723" lon="5.13734">
        <ele>367.712</ele>
        <time>2019-09-27T09:26:33Z</time>
      </trkpt>
      <trkpt lat="43.97219" lon="5.13735">
        <ele>370.214</ele>
        <time>2019-09-27T09:26:48Z</time>
      </trkpt>
      <trkpt lat="43.97208" lon="5.13734">
        <ele>372.354</ele>
        <time>2019-09-27T09:27:04Z</time>
      </trkpt>
      <trkpt lat="43.97193" lon="5.13735">
        <ele>375.609</ele>
        <time>2019-09-27T09:27:25Z</time>
      </trkpt>
      <trkpt lat="43.97181" lon="5.13736">
        <ele>378.608</ele>
        <time>2019-09-27T09:27:41Z</time>
      </trkpt>
      <trkpt lat="43.97166" lon="5.13735">
        <ele>381.095</ele>
        <time>2019-09-27T09:28:01Z</time>
      </trkpt>
      <trkpt lat="43.97159" lon="5.13745">
        <ele>384.072</ele>
        <time>2019-09-27T09:28:21Z</time>
      </trkpt>
      <trkpt lat="43.97152" lon="5.13755">
        <ele>386.778</ele>
        <time>2019-09-27T09:28:38Z</time>
      </trkpt>
      <trkpt lat="43.97143" lon="5.1375">
        <ele>390.019</ele>
        <time>2019-09-27T09:28:54Z</time>
      </trkpt>
      <trkpt lat="43.97131" lon="5.13758">
        <ele>392.012</ele>
        <time>2019-09-27T09:29:13Z</time>
      </trkpt>
      <trkpt lat="43.9712" lon="5.13774">
        <ele>394.382</ele>
        <time>2019-09-27T09:29:39Z</time>
      </trkpt>
      <trkpt lat="43.97125" lon="5.1379">
        <ele>396.224</ele>
        <time>2019-09-27T09:30:07Z</time>
      </trkpt>
      <trkpt lat="43.97125" lon="5.1379">
        <ele>397.396</ele>
        <time>2019-09-27T09:30:39Z</time>
      </trkpt>
      <trkpt lat="43.97126" lon="5.13791">
        <ele>397.711</ele>
        <time>2019-09-27T09:30:58Z</time>
      </trkpt>
      <trkpt lat="43.97124" lon="5.13788">
        <ele>396.721</ele>
        <time>2019-09-27T09:31:19Z</time>
      </trkpt>
      <trkpt lat="43.97119" lon="5.13776">
        <ele>396.203</ele>
        <time>2019-09-27T09:31:34Z</time>
      </trkpt>
      <trkpt lat="43.97126" lon="5.13764">
        <ele>394.008</ele>
        <time>2019-09-27T09:31:52Z</time>
      </trkpt>
      <trkpt lat="43.97125" lon="5.13761">
        <ele>392.665</ele>
        <time>2019-09-27T09:32:09Z</time>
      </trkpt>
      <trkpt lat="43.9712" lon="5.13776">
        <ele>394.282</ele>
        <time>2019-09-27T09:32:29Z</time>
      </trkpt>
      <trkpt lat="43.97127" lon="5.13793">
        <ele>396.298</ele>
        <time>2019-09-27T09:32:48Z</time>
      </trkpt>
      <trkpt lat="43.97138" lon="5.13814">
        <ele>396.719</ele>
        <time>2019-09-27T09:33:11Z</time>
      </trkpt>
      <trkpt lat="43.97145" lon="5.13829">
        <ele>397.062</ele>
        <time>2019-09-27T09:33:25Z</time>
      </trkpt>
      <trkpt lat="43.97158" lon="5.13845">
        <ele>398.092</ele>
        <time>2019-09-27T09:33:44Z</time>
      </trkpt>
      <trkpt lat="43.97159" lon="5.13846">
        <ele>398.084</ele>
        <time>2019-09-27T09:34:01Z</time>
      </trkpt>
      <trkpt lat="43.97158" lon="5.13846">
        <ele>394.636</ele>
        <time>2019-09-27T09:34:12Z</time>
      </trkpt>
      <trkpt lat="43.97158" lon="5.13846">
        <ele>398.247</ele>
        <time>2019-09-27T09:34:21Z</time>
      </trkpt>
      <trkpt lat="43.97158" lon="5.13846">
        <ele>399.729</ele>
        <time>2019-09-27T09:34:24Z</time>
      </trkpt>
      <trkpt lat="43.97158" lon="5.13846">
        <ele>397.621</ele>
        <time>2019-09-27T09:34:52Z</time>
      </trkpt>
      <trkpt lat="43.97159" lon="5.13846">
        <ele>397.608</ele>
        <time>2019-09-27T09:35:42Z</time>
      </trkpt>
      <trkpt lat="43.97159" lon="5.13846">
        <ele>393.618</ele>
        <time>2019-09-27T09:35:48Z</time>
      </trkpt>
      <trkpt lat="43.97159" lon="5.13846">
        <ele>395.645</ele>
        <time>2019-09-27T09:35:49Z</time>
      </trkpt>
      <trkpt lat="43.97159" lon="5.13847">
        <ele>396.091</ele>
        <time>2019-09-27T09:36:41Z</time>
      </trkpt>
      <trkpt lat="43.97159" lon="5.13847">
        <ele>394.262</ele>
        <time>2019-09-27T09:36:44Z</time>
      </trkpt>
      <trkpt lat="43.97159" lon="5.13847">
        <ele>398.755</ele>
        <time>2019-09-27T09:36:53Z</time>
      </trkpt>
      <trkpt lat="43.97159" lon="5.13847">
        <ele>400.765</ele>
        <time>2019-09-27T09:36:56Z</time>
      </trkpt>
      <trkpt lat="43.97159" lon="5.13847">
        <ele>397.677</ele>
        <time>2019-09-27T09:37:09Z</time>
      </trkpt>
      <trkpt lat="43.97159" lon="5.13847">
        <ele>397.379</ele>
        <time>2019-09-27T09:37:50Z</time>
      </trkpt>
      <trkpt lat="43.97159" lon="5.13847">
        <ele>397.364</ele>
        <time>2019-09-27T09:38:15Z</time>
      </trkpt>
      <trkpt lat="43.97163" lon="5.13855">
        <ele>395.206</ele>
        <time>2019-09-27T09:38:31Z</time>
      </trkpt>
      <trkpt lat="43.97164" lon="5.13856">
        <ele>397.316</ele>
        <time>2019-09-27T09:38:37Z</time>
      </trkpt>
      <trkpt lat="43.97168" lon="5.1387">
        <ele>398.208</ele>
        <time>2019-09-27T09:39:02Z</time>
      </trkpt>
      <trkpt lat="43.97159" lon="5.13883">
        <ele>399.02</ele>
        <time>2019-09-27T09:39:19Z</time>
      </trkpt>
      <trkpt lat="43.9715" lon="5.13895">
        <ele>399.017</ele>
        <time>2019-09-27T09:39:35Z</time>
      </trkpt>
      <trkpt lat="43.97145" lon="5.13901">
        <ele>402.033</ele>
        <time>2019-09-27T09:39:45Z</time>
      </trkpt>
      <trkpt lat="43.9714" lon="5.139">
        <ele>402.074</ele>
        <time>2019-09-27T09:40:00Z</time>
      </trkpt>
      <trkpt lat="43.97139" lon="5.13899">
        <ele>403.077</ele>
        <time>2019-09-27T09:40:21Z</time>
      </trkpt>
      <trkpt lat="43.97134" lon="5.13892">
        <ele>404.077</ele>
        <time>2019-09-27T09:40:39Z</time>
      </trkpt>
      <trkpt lat="43.97126" lon="5.1388">
        <ele>406.769</ele>
        <time>2019-09-27T09:40:58Z</time>
      </trkpt>
      <trkpt lat="43.97115" lon="5.13866">
        <ele>408.631</ele>
        <time>2019-09-27T09:41:18Z</time>
      </trkpt>
      <trkpt lat="43.971" lon="5.13865">
        <ele>410.238</ele>
        <time>2019-09-27T09:41:39Z</time>
      </trkpt>
      <trkpt lat="43.9709" lon="5.13866">
        <ele>411.27</ele>
        <time>2019-09-27T09:41:55Z</time>
      </trkpt>
      <trkpt lat="43.97089" lon="5.13862">
        <ele>412.317</ele>
        <time>2019-09-27T09:42:18Z</time>
      </trkpt>
      <trkpt lat="43.97091" lon="5.1386">
        <ele>412.208</ele>
        <time>2019-09-27T09:42:32Z</time>
      </trkpt>
      <trkpt lat="43.9709" lon="5.13861">
        <ele>412.047</ele>
        <time>2019-09-27T09:42:53Z</time>
      </trkpt>
      <trkpt lat="43.9708" lon="5.13858">
        <ele>412.354</ele>
        <time>2019-09-27T09:43:10Z</time>
      </trkpt>
      <trkpt lat="43.97076" lon="5.13856">
        <ele>412.67</ele>
        <time>2019-09-27T09:43:16Z</time>
      </trkpt>
      <trkpt lat="43.97065" lon="5.13855">
        <ele>413.381</ele>
        <time>2019-09-27T09:43:29Z</time>
      </trkpt>
      <trkpt lat="43.9705" lon="5.13857">
        <ele>414.334</ele>
        <time>2019-09-27T09:43:47Z</time>
      </trkpt>
      <trkpt lat="43.97041" lon="5.13861">
        <ele>413.794</ele>
        <time>2019-09-27T09:44:01Z</time>
      </trkpt>
      <trkpt lat="43.9703" lon="5.13863">
        <ele>414.656</ele>
        <time>2019-09-27T09:44:27Z</time>
      </trkpt>
      <trkpt lat="43.97027" lon="5.13863">
        <ele>414.638</ele>
        <time>2019-09-27T09:44:42Z</time>
      </trkpt>
      <trkpt lat="43.97019" lon="5.13867">
        <ele>415.666</ele>
        <time>2019-09-27T09:45:00Z</time>
      </trkpt>
      <trkpt lat="43.97004" lon="5.13873">
        <ele>415.329</ele>
        <time>2019-09-27T09:45:18Z</time>
      </trkpt>
      <trkpt lat="43.96989" lon="5.13877">
        <ele>415.621</ele>
        <time>2019-09-27T09:45:34Z</time>
      </trkpt>
      <trkpt lat="43.96973" lon="5.13885">
        <ele>416.308</ele>
        <time>2019-09-27T09:45:52Z</time>
      </trkpt>
      <trkpt lat="43.9696" lon="5.13891">
        <ele>417.02</ele>
        <time>2019-09-27T09:46:07Z</time>
      </trkpt>
      <trkpt lat="43.96944" lon="5.13897">
        <ele>417.317</ele>
        <time>2019-09-27T09:46:24Z</time>
      </trkpt>
      <trkpt lat="43.96931" lon="5.13904">
        <ele>417.223</ele>
        <time>2019-09-27T09:46:42Z</time>
      </trkpt>
      <trkpt lat="43.9693" lon="5.13905">
        <ele>418.744</ele>
        <time>2019-09-27T09:47:04Z</time>
      </trkpt>
      <trkpt lat="43.96917" lon="5.13912">
        <ele>416.717</ele>
        <time>2019-09-27T09:47:21Z</time>
      </trkpt>
      <trkpt lat="43.96909" lon="5.13914">
        <ele>416.037</ele>
        <time>2019-09-27T09:47:36Z</time>
      </trkpt>
      <trkpt lat="43.96893" lon="5.13916">
        <ele>415.779</ele>
        <time>2019-09-27T09:47:54Z</time>
      </trkpt>
      <trkpt lat="43.96881" lon="5.13917">
        <ele>415.641</ele>
        <time>2019-09-27T09:48:10Z</time>
      </trkpt>
      <trkpt lat="43.96869" lon="5.13918">
        <ele>415.275</ele>
        <time>2019-09-27T09:48:26Z</time>
      </trkpt>
      <trkpt lat="43.96857" lon="5.13922">
        <ele>413.728</ele>
        <time>2019-09-27T09:48:44Z</time>
      </trkpt>
      <trkpt lat="43.96846" lon="5.13924">
        <ele>412.72</ele>
        <time>2019-09-27T09:49:00Z</time>
      </trkpt>
      <trkpt lat="43.96835" lon="5.13924">
        <ele>412.008</ele>
        <time>2019-09-27T09:49:17Z</time>
      </trkpt>
      <trkpt lat="43.96829" lon="5.13922">
        <ele>411.251</ele>
        <time>2019-09-27T09:49:31Z</time>
      </trkpt>
      <trkpt lat="43.9682" lon="5.13921">
        <ele>410.288</ele>
        <time>2019-09-27T09:49:52Z</time>
      </trkpt>
      <trkpt lat="43.96817" lon="5.13921">
        <ele>409.724</ele>
        <time>2019-09-27T09:50:14Z</time>
      </trkpt>
      <trkpt lat="43.96807" lon="5.1392">
        <ele>409.225</ele>
        <time>2019-09-27T09:50:29Z</time>
      </trkpt>
      <trkpt lat="43.96795" lon="5.13919">
        <ele>408.338</ele>
        <time>2019-09-27T09:50:48Z</time>
      </trkpt>
      <trkpt lat="43.96789" lon="5.13918">
        <ele>408.098</ele>
        <time>2019-09-27T09:51:04Z</time>
      </trkpt>
      <trkpt lat="43.96773" lon="5.13917">
        <ele>406.69</ele>
        <time>2019-09-27T09:51:25Z</time>
      </trkpt>
      <trkpt lat="43.96759" lon="5.13914">
        <ele>405.342</ele>
        <time>2019-09-27T09:51:50Z</time>
      </trkpt>
      <trkpt lat="43.96753" lon="5.13916">
        <ele>404.074</ele>
        <time>2019-09-27T09:52:08Z</time>
      </trkpt>
      <trkpt lat="43.96745" lon="5.13922">
        <ele>403.056</ele>
        <time>2019-09-27T09:52:27Z</time>
      </trkpt>
      <trkpt lat="43.96745" lon="5.13922">
        <ele>403.621</ele>
        <time>2019-09-27T09:52:52Z</time>
      </trkpt>
      <trkpt lat="43.96746" lon="5.13922">
        <ele>403.708</ele>
        <time>2019-09-27T09:53:14Z</time>
      </trkpt>
      <trkpt lat="43.96739" lon="5.13925">
        <ele>403.641</ele>
        <time>2019-09-27T09:53:29Z</time>
      </trkpt>
      <trkpt lat="43.9673" lon="5.1393">
        <ele>401.348</ele>
        <time>2019-09-27T09:53:53Z</time>
      </trkpt>
      <trkpt lat="43.96727" lon="5.13931">
        <ele>404.684</ele>
        <time>2019-09-27T09:54:05Z</time>
      </trkpt>
      <trkpt lat="43.96724" lon="5.1393">
        <ele>402.695</ele>
        <time>2019-09-27T09:54:28Z</time>
      </trkpt>
      <trkpt lat="43.96717" lon="5.13934">
        <ele>402.288</ele>
        <time>2019-09-27T09:54:55Z</time>
      </trkpt>
      <trkpt lat="43.96716" lon="5.13934">
        <ele>401.258</ele>
        <time>2019-09-27T09:55:29Z</time>
      </trkpt>
      <trkpt lat="43.96716" lon="5.13934">
        <ele>402.64</ele>
        <time>2019-09-27T09:55:34Z</time>
      </trkpt>
      <trkpt lat="43.9671" lon="5.13933">
        <ele>402.672</ele>
        <time>2019-09-27T09:56:15Z</time>
      </trkpt>
      <trkpt lat="43.967" lon="5.13934">
        <ele>401.033</ele>
        <time>2019-09-27T09:56:28Z</time>
      </trkpt>
      <trkpt lat="43.96682" lon="5.13934">
        <ele>402.023</ele>
        <time>2019-09-27T09:56:52Z</time>
      </trkpt>
      <trkpt lat="43.96677" lon="5.13939">
        <ele>402.715</ele>
        <time>2019-09-27T09:57:16Z</time>
      </trkpt>
      <trkpt lat="43.96669" lon="5.1394">
        <ele>402.708</ele>
        <time>2019-09-27T09:57:37Z</time>
      </trkpt>
      <trkpt lat="43.96664" lon="5.13941">
        <ele>402.257</ele>
        <time>2019-09-27T09:58:02Z</time>
      </trkpt>
      <trkpt lat="43.96657" lon="5.13942">
        <ele>401.324</ele>
        <time>2019-09-27T09:58:17Z</time>
      </trkpt>
      <trkpt lat="43.96653" lon="5.13943">
        <ele>401.21</ele>
        <time>2019-09-27T09:58:31Z</time>
      </trkpt>
      <trkpt lat="43.96644" lon="5.13945">
        <ele>400.731</ele>
        <time>2019-09-27T09:58:58Z</time>
      </trkpt>
      <trkpt lat="43.96624" lon="5.13947">
        <ele>399.054</ele>
        <time>2019-09-27T09:59:20Z</time>
      </trkpt>
      <trkpt lat="43.96608" lon="5.1395">
        <ele>398.244</ele>
        <time>2019-09-27T09:59:43Z</time>
      </trkpt>
      <trkpt lat="43.96599" lon="5.13956">
        <ele>396.746</ele>
        <time>2019-09-27T10:00:01Z</time>
      </trkpt>
      <trkpt lat="43.96584" lon="5.1397">
        <ele>395.668</ele>
        <time>2019-09-27T10:00:24Z</time>
      </trkpt>
      <trkpt lat="43.96575" lon="5.13987">
        <ele>393.792</ele>
        <time>2019-09-27T10:00:44Z</time>
      </trkpt>
      <trkpt lat="43.96566" lon="5.14008">
        <ele>392.373</ele>
        <time>2019-09-27T10:01:03Z</time>
      </trkpt>
      <trkpt lat="43.96555" lon="5.14026">
        <ele>392.22</ele>
        <time>2019-09-27T10:01:23Z</time>
      </trkpt>
      <trkpt lat="43.96547" lon="5.14045">
        <ele>392.008</ele>
        <time>2019-09-27T10:01:42Z</time>
      </trkpt>
      <trkpt lat="43.96537" lon="5.14061">
        <ele>391.273</ele>
        <time>2019-09-27T10:01:59Z</time>
      </trkpt>
      <trkpt lat="43.96529" lon="5.14081">
        <ele>390.33</ele>
        <time>2019-09-27T10:02:18Z</time>
      </trkpt>
      <trkpt lat="43.96531" lon="5.14083">
        <ele>389.346</ele>
        <time>2019-09-27T10:02:34Z</time>
      </trkpt>
      <trkpt lat="43.96524" lon="5.14098">
        <ele>388.797</ele>
        <time>2019-09-27T10:02:53Z</time>
      </trkpt>
      <trkpt lat="43.96519" lon="5.14103">
        <ele>388.66</ele>
        <time>2019-09-27T10:03:07Z</time>
      </trkpt>
      <trkpt lat="43.96512" lon="5.14115">
        <ele>389.08</ele>
        <time>2019-09-27T10:03:23Z</time>
      </trkpt>
      <trkpt lat="43.96493" lon="5.14131">
        <ele>388.322</ele>
        <time>2019-09-27T10:03:46Z</time>
      </trkpt>
      <trkpt lat="43.96477" lon="5.14142">
        <ele>387.714</ele>
        <time>2019-09-27T10:04:05Z</time>
      </trkpt>
      <trkpt lat="43.96465" lon="5.14141">
        <ele>387.683</ele>
        <time>2019-09-27T10:04:24Z</time>
      </trkpt>
      <trkpt lat="43.96464" lon="5.14139">
        <ele>386.325</ele>
        <time>2019-09-27T10:04:47Z</time>
      </trkpt>
      <trkpt lat="43.96461" lon="5.14135">
        <ele>384.617</ele>
        <time>2019-09-27T10:05:02Z</time>
      </trkpt>
      <trkpt lat="43.9646" lon="5.14135">
        <ele>388.308</ele>
        <time>2019-09-27T10:05:19Z</time>
      </trkpt>
      <trkpt lat="43.96462" lon="5.14133">
        <ele>387.642</ele>
        <time>2019-09-27T10:05:25Z</time>
      </trkpt>
      <trkpt lat="43.9647" lon="5.14121">
        <ele>387.649</ele>
        <time>2019-09-27T10:05:43Z</time>
      </trkpt>
      <trkpt lat="43.96479" lon="5.14106">
        <ele>386.755</ele>
        <time>2019-09-27T10:05:59Z</time>
      </trkpt>
      <trkpt lat="43.96486" lon="5.14092">
        <ele>386.056</ele>
        <time>2019-09-27T10:06:13Z</time>
      </trkpt>
      <trkpt lat="43.9649" lon="5.14077">
        <ele>385.389</ele>
        <time>2019-09-27T10:06:27Z</time>
      </trkpt>
      <trkpt lat="43.96495" lon="5.14059">
        <ele>383.639</ele>
        <time>2019-09-27T10:06:43Z</time>
      </trkpt>
      <trkpt lat="43.96499" lon="5.14044">
        <ele>382.271</ele>
        <time>2019-09-27T10:07:00Z</time>
      </trkpt>
      <trkpt lat="43.96505" lon="5.14027">
        <ele>380.733</ele>
        <time>2019-09-27T10:07:18Z</time>
      </trkpt>
      <trkpt lat="43.96508" lon="5.14017">
        <ele>379.726</ele>
        <time>2019-09-27T10:07:28Z</time>
      </trkpt>
      <trkpt lat="43.96513" lon="5.14002">
        <ele>378.247</ele>
        <time>2019-09-27T10:07:45Z</time>
      </trkpt>
      <trkpt lat="43.96515" lon="5.13993">
        <ele>376.711</ele>
        <time>2019-09-27T10:08:02Z</time>
      </trkpt>
      <trkpt lat="43.96518" lon="5.13979">
        <ele>375.708</ele>
        <time>2019-09-27T10:08:16Z</time>
      </trkpt>
      <trkpt lat="43.96518" lon="5.13975">
        <ele>375.346</ele>
        <time>2019-09-27T10:08:20Z</time>
      </trkpt>
      <trkpt lat="43.96521" lon="5.13961">
        <ele>374.263</ele>
        <time>2019-09-27T10:08:34Z</time>
      </trkpt>
      <trkpt lat="43.96525" lon="5.13947">
        <ele>372.379</ele>
        <time>2019-09-27T10:08:50Z</time>
      </trkpt>
      <trkpt lat="43.9653" lon="5.13935">
        <ele>371.23</ele>
        <time>2019-09-27T10:09:05Z</time>
      </trkpt>
      <trkpt lat="43.96541" lon="5.13923">
        <ele>369.393</ele>
        <time>2019-09-27T10:09:23Z</time>
      </trkpt>
      <trkpt lat="43.96549" lon="5.13909">
        <ele>368.233</ele>
        <time>2019-09-27T10:09:42Z</time>
      </trkpt>
      <trkpt lat="43.96543" lon="5.13901">
        <ele>366.795</ele>
        <time>2019-09-27T10:09:59Z</time>
      </trkpt>
      <trkpt lat="43.96546" lon="5.13894">
        <ele>365.247</ele>
        <time>2019-09-27T10:10:14Z</time>
      </trkpt>
      <trkpt lat="43.96545" lon="5.13887">
        <ele>364.745</ele>
        <time>2019-09-27T10:10:29Z</time>
      </trkpt>
      <trkpt lat="43.96546" lon="5.13871">
        <ele>362.747</ele>
        <time>2019-09-27T10:10:44Z</time>
      </trkpt>
      <trkpt lat="43.96543" lon="5.13859">
        <ele>362.211</ele>
        <time>2019-09-27T10:10:59Z</time>
      </trkpt>
      <trkpt lat="43.96542" lon="5.13859">
        <ele>362.708</ele>
        <time>2019-09-27T10:11:15Z</time>
      </trkpt>
      <trkpt lat="43.96543" lon="5.13859">
        <ele>362.398</ele>
        <time>2019-09-27T10:11:42Z</time>
      </trkpt>
      <trkpt lat="43.96545" lon="5.13859">
        <ele>362.695</ele>
        <time>2019-09-27T10:12:13Z</time>
      </trkpt>
      <trkpt lat="43.96544" lon="5.13858">
        <ele>362.641</ele>
        <time>2019-09-27T10:12:37Z</time>
      </trkpt>
      <trkpt lat="43.96539" lon="5.13851">
        <ele>362.682</ele>
        <time>2019-09-27T10:12:54Z</time>
      </trkpt>
      <trkpt lat="43.96537" lon="5.13854">
        <ele>362.755</ele>
        <time>2019-09-27T10:13:17Z</time>
      </trkpt>
      <trkpt lat="43.96535" lon="5.13857">
        <ele>363.025</ele>
        <time>2019-09-27T10:13:45Z</time>
      </trkpt>
      <trkpt lat="43.96538" lon="5.13865">
        <ele>363.247</ele>
        <time>2019-09-27T10:14:18Z</time>
      </trkpt>
      <trkpt lat="43.96533" lon="5.13861">
        <ele>363.279</ele>
        <time>2019-09-27T10:14:40Z</time>
      </trkpt>
      <trkpt lat="43.9653" lon="5.13868">
        <ele>363.239</ele>
        <time>2019-09-27T10:14:52Z</time>
      </trkpt>
      <trkpt lat="43.96521" lon="5.13863">
        <ele>364.001</ele>
        <time>2019-09-27T10:15:07Z</time>
      </trkpt>
      <trkpt lat="43.96525" lon="5.13871">
        <ele>364.721</ele>
        <time>2019-09-27T10:15:23Z</time>
      </trkpt>
      <trkpt lat="43.96523" lon="5.13874">
        <ele>364.708</ele>
        <time>2019-09-27T10:15:39Z</time>
      </trkpt>
      <trkpt lat="43.96521" lon="5.13879">
        <ele>364.677</ele>
        <time>2019-09-27T10:15:49Z</time>
      </trkpt>
      <trkpt lat="43.9652" lon="5.1388">
        <ele>364.654</ele>
        <time>2019-09-27T10:15:50Z</time>
      </trkpt>
      <trkpt lat="43.96518" lon="5.13877">
        <ele>364.36</ele>
        <time>2019-09-27T10:15:55Z</time>
      </trkpt>
      <trkpt lat="43.96523" lon="5.13877">
        <ele>363.361</ele>
        <time>2019-09-27T10:16:08Z</time>
      </trkpt>
      <trkpt lat="43.96521" lon="5.13881">
        <ele>363.094</ele>
        <time>2019-09-27T10:16:17Z</time>
      </trkpt>
      <trkpt lat="43.96524" lon="5.1388">
        <ele>363.084</ele>
        <time>2019-09-27T10:16:30Z</time>
      </trkpt>
      <trkpt lat="43.96529" lon="5.13891">
        <ele>363.056</ele>
        <time>2019-09-27T10:16:36Z</time>
      </trkpt>
      <trkpt lat="43.9653" lon="5.13894">
        <ele>363.098</ele>
        <time>2019-09-27T10:16:37Z</time>
      </trkpt>
      <trkpt lat="43.9653" lon="5.13896">
        <ele>363.049</ele>
        <time>2019-09-27T10:16:38Z</time>
      </trkpt>
      <trkpt lat="43.96529" lon="5.13892">
        <ele>363.002</ele>
        <time>2019-09-27T10:16:45Z</time>
      </trkpt>
      <trkpt lat="43.96529" lon="5.13891">
        <ele>363.022</ele>
        <time>2019-09-27T10:16:46Z</time>
      </trkpt>
      <trkpt lat="43.96529" lon="5.13887">
        <ele>363.008</ele>
        <time>2019-09-27T10:16:51Z</time>
      </trkpt>
      <trkpt lat="43.96532" lon="5.13889">
        <ele>363.098</ele>
        <time>2019-09-27T10:16:55Z</time>
      </trkpt>
      <trkpt lat="43.9654" lon="5.13892">
        <ele>363.225</ele>
        <time>2019-09-27T10:17:06Z</time>
      </trkpt>
      <trkpt lat="43.96542" lon="5.13887">
        <ele>363.221</ele>
        <time>2019-09-27T10:17:15Z</time>
      </trkpt>
      <trkpt lat="43.96539" lon="5.13873">
        <ele>363.272</ele>
        <time>2019-09-27T10:17:30Z</time>
      </trkpt>
      <trkpt lat="43.96538" lon="5.13864">
        <ele>363.245</ele>
        <time>2019-09-27T10:17:47Z</time>
      </trkpt>
      <trkpt lat="43.96536" lon="5.13861">
        <ele>363.035</ele>
        <time>2019-09-27T10:18:04Z</time>
      </trkpt>
      <trkpt lat="43.96539" lon="5.13873">
        <ele>363.017</ele>
        <time>2019-09-27T10:18:37Z</time>
      </trkpt>
      <trkpt lat="43.96537" lon="5.13865">
        <ele>363.019</ele>
        <time>2019-09-27T10:18:54Z</time>
      </trkpt>
      <trkpt lat="43.96542" lon="5.13862">
        <ele>363.025</ele>
        <time>2019-09-27T10:19:09Z</time>
      </trkpt>
      <trkpt lat="43.9654" lon="5.13861">
        <ele>362.726</ele>
        <time>2019-09-27T10:19:11Z</time>
      </trkpt>
      <trkpt lat="43.96539" lon="5.1386">
        <ele>362.708</ele>
        <time>2019-09-27T10:19:13Z</time>
      </trkpt>
      <trkpt lat="43.96535" lon="5.13857">
        <ele>362.708</ele>
        <time>2019-09-27T10:19:16Z</time>
      </trkpt>
      <trkpt lat="43.96535" lon="5.13852">
        <ele>362.366</ele>
        <time>2019-09-27T10:19:34Z</time>
      </trkpt>
      <trkpt lat="43.96534" lon="5.13852">
        <ele>359.263</ele>
        <time>2019-09-27T10:19:40Z</time>
      </trkpt>
      <trkpt lat="43.96534" lon="5.13852">
        <ele>359.249</ele>
        <time>2019-09-27T10:19:41Z</time>
      </trkpt>
      <trkpt lat="43.96534" lon="5.13852">
        <ele>361.05</ele>
        <time>2019-09-27T10:19:46Z</time>
      </trkpt>
      <trkpt lat="43.96535" lon="5.13852">
        <ele>364.643</ele>
        <time>2019-09-27T10:19:58Z</time>
      </trkpt>
      <trkpt lat="43.96537" lon="5.13848">
        <ele>363.213</ele>
        <time>2019-09-27T10:20:27Z</time>
      </trkpt>
      <trkpt lat="43.9654" lon="5.13839">
        <ele>363.395</ele>
        <time>2019-09-27T10:20:45Z</time>
      </trkpt>
      <trkpt lat="43.96539" lon="5.13841">
        <ele>363.647</ele>
        <time>2019-09-27T10:20:52Z</time>
      </trkpt>
      <trkpt lat="43.96541" lon="5.13846">
        <ele>363.788</ele>
        <time>2019-09-27T10:21:24Z</time>
      </trkpt>
      <trkpt lat="43.96556" lon="5.13853">
        <ele>362.724</ele>
        <time>2019-09-27T10:21:41Z</time>
      </trkpt>
      <trkpt lat="43.9656" lon="5.13852">
        <ele>362.626</ele>
        <time>2019-09-27T10:21:58Z</time>
      </trkpt>
      <trkpt lat="43.96565" lon="5.13848">
        <ele>362.208</ele>
        <time>2019-09-27T10:22:27Z</time>
      </trkpt>
      <trkpt lat="43.96566" lon="5.13846">
        <ele>362.322</ele>
        <time>2019-09-27T10:22:48Z</time>
      </trkpt>
      <trkpt lat="43.96566" lon="5.13846">
        <ele>362.359</ele>
        <time>2019-09-27T10:23:11Z</time>
      </trkpt>
      <trkpt lat="43.96567" lon="5.13846">
        <ele>362.365</ele>
        <time>2019-09-27T10:23:38Z</time>
      </trkpt>
      <trkpt lat="43.9656" lon="5.1386">
        <ele>362.366</ele>
        <time>2019-09-27T10:24:25Z</time>
      </trkpt>
      <trkpt lat="43.96549" lon="5.13882">
        <ele>361.299</ele>
        <time>2019-09-27T10:24:51Z</time>
      </trkpt>
      <trkpt lat="43.96538" lon="5.13898">
        <ele>362.279</ele>
        <time>2019-09-27T10:25:10Z</time>
      </trkpt>
      <trkpt lat="43.96534" lon="5.13909">
        <ele>365.271</ele>
        <time>2019-09-27T10:25:30Z</time>
      </trkpt>
      <trkpt lat="43.96534" lon="5.1391">
        <ele>366.253</ele>
        <time>2019-09-27T10:25:59Z</time>
      </trkpt>
      <trkpt lat="43.96531" lon="5.13915">
        <ele>366.675</ele>
        <time>2019-09-27T10:26:25Z</time>
      </trkpt>
      <trkpt lat="43.96531" lon="5.13918">
        <ele>366.628</ele>
        <time>2019-09-27T10:26:57Z</time>
      </trkpt>
      <trkpt lat="43.96521" lon="5.13932">
        <ele>367.72</ele>
        <time>2019-09-27T10:27:24Z</time>
      </trkpt>
      <trkpt lat="43.96516" lon="5.13946">
        <ele>370.708</ele>
        <time>2019-09-27T10:27:46Z</time>
      </trkpt>
      <trkpt lat="43.96517" lon="5.13952">
        <ele>372.071</ele>
        <time>2019-09-27T10:28:16Z</time>
      </trkpt>
      <trkpt lat="43.96517" lon="5.13952">
        <ele>368.678</ele>
        <time>2019-09-27T10:28:46Z</time>
      </trkpt>
      <trkpt lat="43.96517" lon="5.13952">
        <ele>368.314</ele>
        <time>2019-09-27T10:28:47Z</time>
      </trkpt>
      <trkpt lat="43.96517" lon="5.13952">
        <ele>372.285</ele>
        <time>2019-09-27T10:28:51Z</time>
      </trkpt>
      <trkpt lat="43.96518" lon="5.13954">
        <ele>374.638</ele>
        <time>2019-09-27T10:29:02Z</time>
      </trkpt>
      <trkpt lat="43.96517" lon="5.13954">
        <ele>373.068</ele>
        <time>2019-09-27T10:29:24Z</time>
      </trkpt>
      <trkpt lat="43.96518" lon="5.13969">
        <ele>373.66</ele>
        <time>2019-09-27T10:29:46Z</time>
      </trkpt>
      <trkpt lat="43.96515" lon="5.13983">
        <ele>375.322</ele>
        <time>2019-09-27T10:30:03Z</time>
      </trkpt>
      <trkpt lat="43.96514" lon="5.14001">
        <ele>376.712</ele>
        <time>2019-09-27T10:30:22Z</time>
      </trkpt>
      <trkpt lat="43.96508" lon="5.14023">
        <ele>379.232</ele>
        <time>2019-09-27T10:30:42Z</time>
      </trkpt>
      <trkpt lat="43.96502" lon="5.14041">
        <ele>380.705</ele>
        <time>2019-09-27T10:31:02Z</time>
      </trkpt>
      <trkpt lat="43.96497" lon="5.14058">
        <ele>382.008</ele>
        <time>2019-09-27T10:31:18Z</time>
      </trkpt>
      <trkpt lat="43.96491" lon="5.14077">
        <ele>383.735</ele>
        <time>2019-09-27T10:31:36Z</time>
      </trkpt>
      <trkpt lat="43.96489" lon="5.14091">
        <ele>385.672</ele>
        <time>2019-09-27T10:31:54Z</time>
      </trkpt>
      <trkpt lat="43.96488" lon="5.14094">
        <ele>385.628</ele>
        <time>2019-09-27T10:31:56Z</time>
      </trkpt>
      <trkpt lat="43.96482" lon="5.14109">
        <ele>386.629</ele>
        <time>2019-09-27T10:32:11Z</time>
      </trkpt>
      <trkpt lat="43.96473" lon="5.14124">
        <ele>387.312</ele>
        <time>2019-09-27T10:32:27Z</time>
      </trkpt>
      <trkpt lat="43.96462" lon="5.14139">
        <ele>388.272</ele>
        <time>2019-09-27T10:32:43Z</time>
      </trkpt>
      <trkpt lat="43.96451" lon="5.14155">
        <ele>388.034</ele>
        <time>2019-09-27T10:32:59Z</time>
      </trkpt>
      <trkpt lat="43.96436" lon="5.14174">
        <ele>389.796</ele>
        <time>2019-09-27T10:33:24Z</time>
      </trkpt>
      <trkpt lat="43.96424" lon="5.14165">
        <ele>390.659</ele>
        <time>2019-09-27T10:33:44Z</time>
      </trkpt>
      <trkpt lat="43.96411" lon="5.14161">
        <ele>393.303</ele>
        <time>2019-09-27T10:34:03Z</time>
      </trkpt>
      <trkpt lat="43.964" lon="5.14165">
        <ele>396.323</ele>
        <time>2019-09-27T10:34:23Z</time>
      </trkpt>
      <trkpt lat="43.9639" lon="5.14177">
        <ele>399.308</ele>
        <time>2019-09-27T10:34:41Z</time>
      </trkpt>
      <trkpt lat="43.96383" lon="5.1419">
        <ele>402.399</ele>
        <time>2019-09-27T10:35:01Z</time>
      </trkpt>
      <trkpt lat="43.96372" lon="5.14195">
        <ele>405.686</ele>
        <time>2019-09-27T10:35:20Z</time>
      </trkpt>
      <trkpt lat="43.96362" lon="5.14205">
        <ele>408.642</ele>
        <time>2019-09-27T10:35:42Z</time>
      </trkpt>
      <trkpt lat="43.9635" lon="5.14212">
        <ele>411.673</ele>
        <time>2019-09-27T10:36:04Z</time>
      </trkpt>
      <trkpt lat="43.96335" lon="5.14209">
        <ele>414.676</ele>
        <time>2019-09-27T10:36:25Z</time>
      </trkpt>
      <trkpt lat="43.96324" lon="5.14216">
        <ele>418.066</ele>
        <time>2019-09-27T10:36:47Z</time>
      </trkpt>
      <trkpt lat="43.96313" lon="5.14224">
        <ele>421.078</ele>
        <time>2019-09-27T10:37:11Z</time>
      </trkpt>
      <trkpt lat="43.96312" lon="5.14223">
        <ele>420.62</ele>
        <time>2019-09-27T10:37:35Z</time>
      </trkpt>
      <trkpt lat="43.9631" lon="5.14222">
        <ele>422.298</ele>
        <time>2019-09-27T10:38:34Z</time>
      </trkpt>
      <trkpt lat="43.96304" lon="5.14226">
        <ele>423.215</ele>
        <time>2019-09-27T10:39:03Z</time>
      </trkpt>
      <trkpt lat="43.96291" lon="5.14229">
        <ele>423.726</ele>
        <time>2019-09-27T10:39:21Z</time>
      </trkpt>
      <trkpt lat="43.96281" lon="5.14244">
        <ele>426.208</ele>
        <time>2019-09-27T10:39:43Z</time>
      </trkpt>
      <trkpt lat="43.9627" lon="5.14262">
        <ele>428.323</ele>
        <time>2019-09-27T10:40:04Z</time>
      </trkpt>
      <trkpt lat="43.96267" lon="5.14268">
        <ele>429.79</ele>
        <time>2019-09-27T10:40:26Z</time>
      </trkpt>
      <trkpt lat="43.96264" lon="5.14276">
        <ele>430.356</ele>
        <time>2019-09-27T10:40:48Z</time>
      </trkpt>
      <trkpt lat="43.96254" lon="5.14299">
        <ele>433.067</ele>
        <time>2019-09-27T10:41:15Z</time>
      </trkpt>
      <trkpt lat="43.96245" lon="5.14316">
        <ele>435.35</ele>
        <time>2019-09-27T10:41:37Z</time>
      </trkpt>
      <trkpt lat="43.96238" lon="5.14331">
        <ele>438.35</ele>
        <time>2019-09-27T10:41:59Z</time>
      </trkpt>
      <trkpt lat="43.96232" lon="5.14347">
        <ele>441.312</ele>
        <time>2019-09-27T10:42:24Z</time>
      </trkpt>
      <trkpt lat="43.96226" lon="5.1436">
        <ele>444.374</ele>
        <time>2019-09-27T10:42:44Z</time>
      </trkpt>
      <trkpt lat="43.96216" lon="5.14369">
        <ele>447.652</ele>
        <time>2019-09-27T10:43:08Z</time>
      </trkpt>
      <trkpt lat="43.96209" lon="5.14369">
        <ele>449.753</ele>
        <time>2019-09-27T10:43:28Z</time>
      </trkpt>
      <trkpt lat="43.96209" lon="5.14369">
        <ele>450.308</ele>
        <time>2019-09-27T10:43:53Z</time>
      </trkpt>
      <trkpt lat="43.96209" lon="5.14369">
        <ele>450.708</ele>
        <time>2019-09-27T10:44:20Z</time>
      </trkpt>
      <trkpt lat="43.96204" lon="5.14366">
        <ele>451.259</ele>
        <time>2019-09-27T10:44:45Z</time>
      </trkpt>
      <trkpt lat="43.96206" lon="5.14364">
        <ele>451.096</ele>
        <time>2019-09-27T10:45:02Z</time>
      </trkpt>
      <trkpt lat="43.96211" lon="5.14364">
        <ele>451.022</ele>
        <time>2019-09-27T10:45:13Z</time>
      </trkpt>
      <trkpt lat="43.96213" lon="5.14365">
        <ele>447.773</ele>
        <time>2019-09-27T10:45:21Z</time>
      </trkpt>
      <trkpt lat="43.96213" lon="5.14365">
        <ele>447.236</ele>
        <time>2019-09-27T10:45:23Z</time>
      </trkpt>
      <trkpt lat="43.96213" lon="5.14365">
        <ele>451.086</ele>
        <time>2019-09-27T10:45:35Z</time>
      </trkpt>
      <trkpt lat="43.96213" lon="5.14367">
        <ele>452.218</ele>
        <time>2019-09-27T10:45:50Z</time>
      </trkpt>
      <trkpt lat="43.96209" lon="5.14362">
        <ele>449.07</ele>
        <time>2019-09-27T10:46:12Z</time>
      </trkpt>
      <trkpt lat="43.96207" lon="5.14359">
        <ele>450.238</ele>
        <time>2019-09-27T10:46:31Z</time>
      </trkpt>
      <trkpt lat="43.96207" lon="5.14359">
        <ele>451.37</ele>
        <time>2019-09-27T10:47:55Z</time>
      </trkpt>
      <trkpt lat="43.96207" lon="5.14359">
        <ele>451.217</ele>
        <time>2019-09-27T10:49:16Z</time>
      </trkpt>
      <trkpt lat="43.96207" lon="5.1436">
        <ele>451.208</ele>
        <time>2019-09-27T10:50:15Z</time>
      </trkpt>
      <trkpt lat="43.96207" lon="5.1436">
        <ele>451.297</ele>
        <time>2019-09-27T10:51:32Z</time>
      </trkpt>
      <trkpt lat="43.96206" lon="5.14365">
        <ele>451.294</ele>
        <time>2019-09-27T10:52:29Z</time>
      </trkpt>
      <trkpt lat="43.96206" lon="5.14362">
        <ele>451.24</ele>
        <time>2019-09-27T10:53:28Z</time>
      </trkpt>
      <trkpt lat="43.96206" lon="5.14359">
        <ele>451.261</ele>
        <time>2019-09-27T10:54:25Z</time>
      </trkpt>
      <trkpt lat="43.96205" lon="5.14361">
        <ele>451.294</ele>
        <time>2019-09-27T10:55:06Z</time>
      </trkpt>
      <trkpt lat="43.96205" lon="5.14361">
        <ele>451.244</ele>
        <time>2019-09-27T10:56:11Z</time>
      </trkpt>
      <trkpt lat="43.96205" lon="5.14361">
        <ele>451.246</ele>
        <time>2019-09-27T10:56:50Z</time>
      </trkpt>
      <trkpt lat="43.96204" lon="5.14362">
        <ele>451.248</ele>
        <time>2019-09-27T10:57:27Z</time>
      </trkpt>
      <trkpt lat="43.96205" lon="5.14358">
        <ele>451.229</ele>
        <time>2019-09-27T10:58:20Z</time>
      </trkpt>
      <trkpt lat="43.96205" lon="5.14357">
        <ele>451.2</ele>
        <time>2019-09-27T10:59:26Z</time>
      </trkpt>
      <trkpt lat="43.96205" lon="5.14357">
        <ele>451.22</ele>
        <time>2019-09-27T11:00:48Z</time>
      </trkpt>
      <trkpt lat="43.96204" lon="5.14357">
        <ele>451.208</ele>
        <time>2019-09-27T11:02:58Z</time>
      </trkpt>
      <trkpt lat="43.96204" lon="5.14357">
        <ele>451.286</ele>
        <time>2019-09-27T11:04:59Z</time>
      </trkpt>
      <trkpt lat="43.96204" lon="5.14356">
        <ele>451.283</ele>
        <time>2019-09-27T11:07:03Z</time>
      </trkpt>
      <trkpt lat="43.96204" lon="5.14356">
        <ele>451.299</ele>
        <time>2019-09-27T11:08:52Z</time>
      </trkpt>
      <trkpt lat="43.96204" lon="5.14356">
        <ele>451.24</ele>
        <time>2019-09-27T11:09:29Z</time>
      </trkpt>
      <trkpt lat="43.96205" lon="5.14356">
        <ele>451.273</ele>
        <time>2019-09-27T11:10:04Z</time>
      </trkpt>
      <trkpt lat="43.96204" lon="5.14356">
        <ele>451.243</ele>
        <time>2019-09-27T11:10:58Z</time>
      </trkpt>
      <trkpt lat="43.96204" lon="5.14356">
        <ele>451.265</ele>
        <time>2019-09-27T11:11:43Z</time>
      </trkpt>
      <trkpt lat="43.96203" lon="5.14359">
        <ele>451.227</ele>
        <time>2019-09-27T11:12:19Z</time>
      </trkpt>
      <trkpt lat="43.96207" lon="5.14357">
        <ele>451.285</ele>
        <time>2019-09-27T11:12:26Z</time>
      </trkpt>
      <trkpt lat="43.96206" lon="5.14357">
        <ele>451.289</ele>
        <time>2019-09-27T11:13:35Z</time>
      </trkpt>
      <trkpt lat="43.96207" lon="5.14357">
        <ele>451.217</ele>
        <time>2019-09-27T11:14:50Z</time>
      </trkpt>
      <trkpt lat="43.96208" lon="5.14358">
        <ele>451.208</ele>
        <time>2019-09-27T11:15:39Z</time>
      </trkpt>
      <trkpt lat="43.96203" lon="5.14354">
        <ele>451.212</ele>
        <time>2019-09-27T11:16:12Z</time>
      </trkpt>
      <trkpt lat="43.96201" lon="5.14357">
        <ele>451.259</ele>
        <time>2019-09-27T11:16:51Z</time>
      </trkpt>
      <trkpt lat="43.96201" lon="5.14358">
        <ele>451.255</ele>
        <time>2019-09-27T11:17:28Z</time>
      </trkpt>
      <trkpt lat="43.96204" lon="5.14362">
        <ele>451.226</ele>
        <time>2019-09-27T11:18:26Z</time>
      </trkpt>
      <trkpt lat="43.962" lon="5.1436">
        <ele>451.239</ele>
        <time>2019-09-27T11:19:15Z</time>
      </trkpt>
      <trkpt lat="43.962" lon="5.14361">
        <ele>451.299</ele>
        <time>2019-09-27T11:19:55Z</time>
      </trkpt>
      <trkpt lat="43.962" lon="5.14361">
        <ele>451.291</ele>
        <time>2019-09-27T11:20:52Z</time>
      </trkpt>
      <trkpt lat="43.962" lon="5.14362">
        <ele>451.253</ele>
        <time>2019-09-27T11:21:34Z</time>
      </trkpt>
      <trkpt lat="43.962" lon="5.14362">
        <ele>451.227</ele>
        <time>2019-09-27T11:22:45Z</time>
      </trkpt>
      <trkpt lat="43.96199" lon="5.14362">
        <ele>451.268</ele>
        <time>2019-09-27T11:23:24Z</time>
      </trkpt>
      <trkpt lat="43.96199" lon="5.14363">
        <ele>451.214</ele>
        <time>2019-09-27T11:24:33Z</time>
      </trkpt>
      <trkpt lat="43.96199" lon="5.14363">
        <ele>451.208</ele>
        <time>2019-09-27T11:26:00Z</time>
      </trkpt>
      <trkpt lat="43.96199" lon="5.14363">
        <ele>451.256</ele>
        <time>2019-09-27T11:27:37Z</time>
      </trkpt>
      <trkpt lat="43.96199" lon="5.14363">
        <ele>451.223</ele>
        <time>2019-09-27T11:28:51Z</time>
      </trkpt>
      <trkpt lat="43.96199" lon="5.14363">
        <ele>451.249</ele>
        <time>2019-09-27T11:30:01Z</time>
      </trkpt>
      <trkpt lat="43.96199" lon="5.14363">
        <ele>451.25</ele>
        <time>2019-09-27T11:31:11Z</time>
      </trkpt>
      <trkpt lat="43.96198" lon="5.14363">
        <ele>451.263</ele>
        <time>2019-09-27T11:32:30Z</time>
      </trkpt>
      <trkpt lat="43.96198" lon="5.14363">
        <ele>451.263</ele>
        <time>2019-09-27T11:33:55Z</time>
      </trkpt>
      <trkpt lat="43.96199" lon="5.14362">
        <ele>451.265</ele>
        <time>2019-09-27T11:34:49Z</time>
      </trkpt>
      <trkpt lat="43.96199" lon="5.14361">
        <ele>451.277</ele>
        <time>2019-09-27T11:35:13Z</time>
      </trkpt>
      <trkpt lat="43.96199" lon="5.14361">
        <ele>451.299</ele>
        <time>2019-09-27T11:35:29Z</time>
      </trkpt>
      <trkpt lat="43.962" lon="5.1436">
        <ele>451.207</ele>
        <time>2019-09-27T11:35:57Z</time>
      </trkpt>
      <trkpt lat="43.962" lon="5.1436">
        <ele>451.227</ele>
        <time>2019-09-27T11:36:33Z</time>
      </trkpt>
      <trkpt lat="43.96201" lon="5.14361">
        <ele>451.208</ele>
        <time>2019-09-27T11:36:54Z</time>
      </trkpt>
      <trkpt lat="43.96201" lon="5.14361">
        <ele>451.213</ele>
        <time>2019-09-27T11:37:27Z</time>
      </trkpt>
      <trkpt lat="43.96202" lon="5.1436">
        <ele>451.29</ele>
        <time>2019-09-27T11:37:49Z</time>
      </trkpt>
      <trkpt lat="43.96206" lon="5.14355">
        <ele>451.286</ele>
        <time>2019-09-27T11:38:07Z</time>
      </trkpt>
      <trkpt lat="43.96211" lon="5.14344">
        <ele>451.267</ele>
        <time>2019-09-27T11:38:25Z</time>
      </trkpt>
      <trkpt lat="43.96211" lon="5.14343">
        <ele>451.25</ele>
        <time>2019-09-27T11:38:56Z</time>
      </trkpt>
      <trkpt lat="43.96211" lon="5.14336">
        <ele>451.22</ele>
        <time>2019-09-27T11:39:16Z</time>
      </trkpt>
      <trkpt lat="43.96209" lon="5.14333">
        <ele>451.262</ele>
        <time>2019-09-27T11:39:44Z</time>
      </trkpt>
      <trkpt lat="43.96208" lon="5.14318">
        <ele>451.254</ele>
        <time>2019-09-27T11:40:02Z</time>
      </trkpt>
      <trkpt lat="43.9621" lon="5.14313">
        <ele>456.081</ele>
        <time>2019-09-27T11:40:09Z</time>
      </trkpt>
      <trkpt lat="43.96211" lon="5.14313">
        <ele>455.661</ele>
        <time>2019-09-27T11:40:10Z</time>
      </trkpt>
      <trkpt lat="43.96214" lon="5.143">
        <ele>455.617</ele>
        <time>2019-09-27T11:40:25Z</time>
      </trkpt>
      <trkpt lat="43.96216" lon="5.14292">
        <ele>455.608</ele>
        <time>2019-09-27T11:40:41Z</time>
      </trkpt>
      <trkpt lat="43.96214" lon="5.14286">
        <ele>456.252</ele>
        <time>2019-09-27T11:40:58Z</time>
      </trkpt>
      <trkpt lat="43.9621" lon="5.14282">
        <ele>456.769</ele>
        <time>2019-09-27T11:41:11Z</time>
      </trkpt>
      <trkpt lat="43.96209" lon="5.14282">
        <ele>456.035</ele>
        <time>2019-09-27T11:41:30Z</time>
      </trkpt>
      <trkpt lat="43.96209" lon="5.14282">
        <ele>455.696</ele>
        <time>2019-09-27T11:42:01Z</time>
      </trkpt>
      <trkpt lat="43.96208" lon="5.14281">
        <ele>458.619</ele>
        <time>2019-09-27T11:42:11Z</time>
      </trkpt>
      <trkpt lat="43.96208" lon="5.14279">
        <ele>455.679</ele>
        <time>2019-09-27T11:42:25Z</time>
      </trkpt>
      <trkpt lat="43.96213" lon="5.14276">
        <ele>454.291</ele>
        <time>2019-09-27T11:42:41Z</time>
      </trkpt>
      <trkpt lat="43.96214" lon="5.14272">
        <ele>452.353</ele>
        <time>2019-09-27T11:43:02Z</time>
      </trkpt>
      <trkpt lat="43.96213" lon="5.1427">
        <ele>453.036</ele>
        <time>2019-09-27T11:43:18Z</time>
      </trkpt>
      <trkpt lat="43.96211" lon="5.14263">
        <ele>450.217</ele>
        <time>2019-09-27T11:43:39Z</time>
      </trkpt>
      <trkpt lat="43.9621" lon="5.14259">
        <ele>448.618</ele>
        <time>2019-09-27T11:43:56Z</time>
      </trkpt>
      <trkpt lat="43.96214" lon="5.14253">
        <ele>445.608</ele>
        <time>2019-09-27T11:44:15Z</time>
      </trkpt>
      <trkpt lat="43.96217" lon="5.14247">
        <ele>444.027</ele>
        <time>2019-09-27T11:44:31Z</time>
      </trkpt>
      <trkpt lat="43.96213" lon="5.14241">
        <ele>444.034</ele>
        <time>2019-09-27T11:44:50Z</time>
      </trkpt>
      <trkpt lat="43.96213" lon="5.14239">
        <ele>444.61</ele>
        <time>2019-09-27T11:45:26Z</time>
      </trkpt>
      <trkpt lat="43.96209" lon="5.14247">
        <ele>443.371</ele>
        <time>2019-09-27T11:45:57Z</time>
      </trkpt>
      <trkpt lat="43.96216" lon="5.14247">
        <ele>443.054</ele>
        <time>2019-09-27T11:46:18Z</time>
      </trkpt>
      <trkpt lat="43.96214" lon="5.14246">
        <ele>444.224</ele>
        <time>2019-09-27T11:46:37Z</time>
      </trkpt>
      <trkpt lat="43.96214" lon="5.14246">
        <ele>443.346</ele>
        <time>2019-09-27T11:47:00Z</time>
      </trkpt>
      <trkpt lat="43.96213" lon="5.14241">
        <ele>443.728</ele>
        <time>2019-09-27T11:47:44Z</time>
      </trkpt>
      <trkpt lat="43.96206" lon="5.14233">
        <ele>443.726</ele>
        <time>2019-09-27T11:48:08Z</time>
      </trkpt>
      <trkpt lat="43.96205" lon="5.14222">
        <ele>447.647</ele>
        <time>2019-09-27T11:48:17Z</time>
      </trkpt>
      <trkpt lat="43.96205" lon="5.14221">
        <ele>447.611</ele>
        <time>2019-09-27T11:48:18Z</time>
      </trkpt>
      <trkpt lat="43.96208" lon="5.14211">
        <ele>449.208</ele>
        <time>2019-09-27T11:48:39Z</time>
      </trkpt>
      <trkpt lat="43.96213" lon="5.14202">
        <ele>449.756</ele>
        <time>2019-09-27T11:49:01Z</time>
      </trkpt>
      <trkpt lat="43.96216" lon="5.14199">
        <ele>449.723</ele>
        <time>2019-09-27T11:49:04Z</time>
      </trkpt>
      <trkpt lat="43.96228" lon="5.14186">
        <ele>450.629</ele>
        <time>2019-09-27T11:49:21Z</time>
      </trkpt>
      <trkpt lat="43.96234" lon="5.14183">
        <ele>451.27</ele>
        <time>2019-09-27T11:49:32Z</time>
      </trkpt>
      <trkpt lat="43.96245" lon="5.14169">
        <ele>450.623</ele>
        <time>2019-09-27T11:49:50Z</time>
      </trkpt>
      <trkpt lat="43.9626" lon="5.14151">
        <ele>453.323</ele>
        <time>2019-09-27T11:50:13Z</time>
      </trkpt>
      <trkpt lat="43.96274" lon="5.14133">
        <ele>456.025</ele>
        <time>2019-09-27T11:50:36Z</time>
      </trkpt>
      <trkpt lat="43.96285" lon="5.14116">
        <ele>459.237</ele>
        <time>2019-09-27T11:51:00Z</time>
      </trkpt>
      <trkpt lat="43.96291" lon="5.14103">
        <ele>462.262</ele>
        <time>2019-09-27T11:51:17Z</time>
      </trkpt>
      <trkpt lat="43.96296" lon="5.14086">
        <ele>465.383</ele>
        <time>2019-09-27T11:51:37Z</time>
      </trkpt>
      <trkpt lat="43.96298" lon="5.14068">
        <ele>468.311</ele>
        <time>2019-09-27T11:51:57Z</time>
      </trkpt>
      <trkpt lat="43.96291" lon="5.14049">
        <ele>471.208</ele>
        <time>2019-09-27T11:52:20Z</time>
      </trkpt>
      <trkpt lat="43.96283" lon="5.14031">
        <ele>472.22</ele>
        <time>2019-09-27T11:52:37Z</time>
      </trkpt>
      <trkpt lat="43.96273" lon="5.14014">
        <ele>472.027</ele>
        <time>2019-09-27T11:52:56Z</time>
      </trkpt>
      <trkpt lat="43.96268" lon="5.14006">
        <ele>472.073</ele>
        <time>2019-09-27T11:53:02Z</time>
      </trkpt>
      <trkpt lat="43.96256" lon="5.13993">
        <ele>472.244</ele>
        <time>2019-09-27T11:53:19Z</time>
      </trkpt>
      <trkpt lat="43.96252" lon="5.13988">
        <ele>472.357</ele>
        <time>2019-09-27T11:53:42Z</time>
      </trkpt>
      <trkpt lat="43.96252" lon="5.13988">
        <ele>472.397</ele>
        <time>2019-09-27T11:54:15Z</time>
      </trkpt>
      <trkpt lat="43.96252" lon="5.13988">
        <ele>472.399</ele>
        <time>2019-09-27T11:54:49Z</time>
      </trkpt>
      <trkpt lat="43.96251" lon="5.13988">
        <ele>472.371</ele>
        <time>2019-09-27T11:55:28Z</time>
      </trkpt>
      <trkpt lat="43.96251" lon="5.13987">
        <ele>472.378</ele>
        <time>2019-09-27T11:55:49Z</time>
      </trkpt>
      <trkpt lat="43.96248" lon="5.13983">
        <ele>472.333</ele>
        <time>2019-09-27T11:56:21Z</time>
      </trkpt>
      <trkpt lat="43.9624" lon="5.13964">
        <ele>471.326</ele>
        <time>2019-09-27T11:56:40Z</time>
      </trkpt>
      <trkpt lat="43.96234" lon="5.13949">
        <ele>470.308</ele>
        <time>2019-09-27T11:56:55Z</time>
      </trkpt>
      <trkpt lat="43.96227" lon="5.13937">
        <ele>469.661</ele>
        <time>2019-09-27T11:57:06Z</time>
      </trkpt>
      <trkpt lat="43.96214" lon="5.13923">
        <ele>468.398</ele>
        <time>2019-09-27T11:57:23Z</time>
      </trkpt>
      <trkpt lat="43.96205" lon="5.13911">
        <ele>466.634</ele>
        <time>2019-09-27T11:57:40Z</time>
      </trkpt>
      <trkpt lat="43.96201" lon="5.13904">
        <ele>465.775</ele>
        <time>2019-09-27T11:57:54Z</time>
      </trkpt>
      <trkpt lat="43.96198" lon="5.13894">
        <ele>464.258</ele>
        <time>2019-09-27T11:58:12Z</time>
      </trkpt>
      <trkpt lat="43.96205" lon="5.13885">
        <ele>462.338</ele>
        <time>2019-09-27T11:58:30Z</time>
      </trkpt>
      <trkpt lat="43.96208" lon="5.13875">
        <ele>460.32</ele>
        <time>2019-09-27T11:58:47Z</time>
      </trkpt>
      <trkpt lat="43.96203" lon="5.13858">
        <ele>457.682</ele>
        <time>2019-09-27T11:59:07Z</time>
      </trkpt>
      <trkpt lat="43.96202" lon="5.13855">
        <ele>456.732</ele>
        <time>2019-09-27T11:59:25Z</time>
      </trkpt>
      <trkpt lat="43.96201" lon="5.13847">
        <ele>456.292</ele>
        <time>2019-09-27T11:59:48Z</time>
      </trkpt>
      <trkpt lat="43.96192" lon="5.13833">
        <ele>454.711</ele>
        <time>2019-09-27T12:00:05Z</time>
      </trkpt>
      <trkpt lat="43.96183" lon="5.1382">
        <ele>453.208</ele>
        <time>2019-09-27T12:00:22Z</time>
      </trkpt>
      <trkpt lat="43.96177" lon="5.13812">
        <ele>451.617</ele>
        <time>2019-09-27T12:00:39Z</time>
      </trkpt>
      <trkpt lat="43.96175" lon="5.13811">
        <ele>451.394</ele>
        <time>2019-09-27T12:00:41Z</time>
      </trkpt>
      <trkpt lat="43.96162" lon="5.13797">
        <ele>450.65</ele>
        <time>2019-09-27T12:01:02Z</time>
      </trkpt>
      <trkpt lat="43.96155" lon="5.13784">
        <ele>449.711</ele>
        <time>2019-09-27T12:01:16Z</time>
      </trkpt>
      <trkpt lat="43.96152" lon="5.13776">
        <ele>448.234</ele>
        <time>2019-09-27T12:01:30Z</time>
      </trkpt>
      <trkpt lat="43.9615" lon="5.13772">
        <ele>449.754</ele>
        <time>2019-09-27T12:01:44Z</time>
      </trkpt>
      <trkpt lat="43.96137" lon="5.13752">
        <ele>448.376</ele>
        <time>2019-09-27T12:02:01Z</time>
      </trkpt>
      <trkpt lat="43.96124" lon="5.1373">
        <ele>448.318</ele>
        <time>2019-09-27T12:02:22Z</time>
      </trkpt>
      <trkpt lat="43.9611" lon="5.13703">
        <ele>449.782</ele>
        <time>2019-09-27T12:02:45Z</time>
      </trkpt>
      <trkpt lat="43.96107" lon="5.13676">
        <ele>450.343</ele>
        <time>2019-09-27T12:03:07Z</time>
      </trkpt>
      <trkpt lat="43.96106" lon="5.13671">
        <ele>450.017</ele>
        <time>2019-09-27T12:03:16Z</time>
      </trkpt>
      <trkpt lat="43.96113" lon="5.13656">
        <ele>451.208</ele>
        <time>2019-09-27T12:03:33Z</time>
      </trkpt>
      <trkpt lat="43.96128" lon="5.13652">
        <ele>454.362</ele>
        <time>2019-09-27T12:03:53Z</time>
      </trkpt>
      <trkpt lat="43.96147" lon="5.13646">
        <ele>457.329</ele>
        <time>2019-09-27T12:04:16Z</time>
      </trkpt>
      <trkpt lat="43.96164" lon="5.13646">
        <ele>459.785</ele>
        <time>2019-09-27T12:04:33Z</time>
      </trkpt>
      <trkpt lat="43.9618" lon="5.13639">
        <ele>461.666</ele>
        <time>2019-09-27T12:04:48Z</time>
      </trkpt>
      <trkpt lat="43.96198" lon="5.13632">
        <ele>462.249</ele>
        <time>2019-09-27T12:05:05Z</time>
      </trkpt>
      <trkpt lat="43.96217" lon="5.13632">
        <ele>462.639</ele>
        <time>2019-09-27T12:05:21Z</time>
      </trkpt>
      <trkpt lat="43.96236" lon="5.13628">
        <ele>462.691</ele>
        <time>2019-09-27T12:05:38Z</time>
      </trkpt>
      <trkpt lat="43.96259" lon="5.13625">
        <ele>463.053</ele>
        <time>2019-09-27T12:05:57Z</time>
      </trkpt>
      <trkpt lat="43.96268" lon="5.13622">
        <ele>463.082</ele>
        <time>2019-09-27T12:06:13Z</time>
      </trkpt>
      <trkpt lat="43.96272" lon="5.13621">
        <ele>462.643</ele>
        <time>2019-09-27T12:06:20Z</time>
      </trkpt>
      <trkpt lat="43.96273" lon="5.13621">
        <ele>462.617</ele>
        <time>2019-09-27T12:06:21Z</time>
      </trkpt>
      <trkpt lat="43.96274" lon="5.1362">
        <ele>462.608</ele>
        <time>2019-09-27T12:06:22Z</time>
      </trkpt>
      <trkpt lat="43.96278" lon="5.1362">
        <ele>462.352</ele>
        <time>2019-09-27T12:06:25Z</time>
      </trkpt>
      <trkpt lat="43.96284" lon="5.13618">
        <ele>462.349</ele>
        <time>2019-09-27T12:06:31Z</time>
      </trkpt>
      <trkpt lat="43.96286" lon="5.13618">
        <ele>462.345</ele>
        <time>2019-09-27T12:06:32Z</time>
      </trkpt>
      <trkpt lat="43.96287" lon="5.13618">
        <ele>462.386</ele>
        <time>2019-09-27T12:06:33Z</time>
      </trkpt>
      <trkpt lat="43.96288" lon="5.13617">
        <ele>462.369</ele>
        <time>2019-09-27T12:06:34Z</time>
      </trkpt>
      <trkpt lat="43.96289" lon="5.13617">
        <ele>462.369</ele>
        <time>2019-09-27T12:06:35Z</time>
      </trkpt>
      <trkpt lat="43.96308" lon="5.13612">
        <ele>462.331</ele>
        <time>2019-09-27T12:06:53Z</time>
      </trkpt>
      <trkpt lat="43.96324" lon="5.13605">
        <ele>462.333</ele>
        <time>2019-09-27T12:07:11Z</time>
      </trkpt>
      <trkpt lat="43.9633" lon="5.13604">
        <ele>462.327</ele>
        <time>2019-09-27T12:07:22Z</time>
      </trkpt>
      <trkpt lat="43.96331" lon="5.13603">
        <ele>462.368</ele>
        <time>2019-09-27T12:07:23Z</time>
      </trkpt>
      <trkpt lat="43.96332" lon="5.13603">
        <ele>462.314</ele>
        <time>2019-09-27T12:07:24Z</time>
      </trkpt>
      <trkpt lat="43.96335" lon="5.13603">
        <ele>462.308</ele>
        <time>2019-09-27T12:07:27Z</time>
      </trkpt>
      <trkpt lat="43.96353" lon="5.13596">
        <ele>462.346</ele>
        <time>2019-09-27T12:07:42Z</time>
      </trkpt>
      <trkpt lat="43.96358" lon="5.13593">
        <ele>462.673</ele>
        <time>2019-09-27T12:07:47Z</time>
      </trkpt>
      <trkpt lat="43.96359" lon="5.13593">
        <ele>462.639</ele>
        <time>2019-09-27T12:07:48Z</time>
      </trkpt>
      <trkpt lat="43.9638" lon="5.13587">
        <ele>462.38</ele>
        <time>2019-09-27T12:08:05Z</time>
      </trkpt>
      <trkpt lat="43.964" lon="5.13579">
        <ele>461.783</ele>
        <time>2019-09-27T12:08:22Z</time>
      </trkpt>
      <trkpt lat="43.96418" lon="5.13568">
        <ele>461.683</ele>
        <time>2019-09-27T12:08:39Z</time>
      </trkpt>
      <trkpt lat="43.96436" lon="5.1356">
        <ele>461.625</ele>
        <time>2019-09-27T12:08:55Z</time>
      </trkpt>
      <trkpt lat="43.96439" lon="5.13558">
        <ele>461.667</ele>
        <time>2019-09-27T12:08:58Z</time>
      </trkpt>
      <trkpt lat="43.96441" lon="5.13557">
        <ele>461.694</ele>
        <time>2019-09-27T12:08:59Z</time>
      </trkpt>
      <trkpt lat="43.96442" lon="5.13557">
        <ele>461.657</ele>
        <time>2019-09-27T12:09:00Z</time>
      </trkpt>
      <trkpt lat="43.96444" lon="5.13556">
        <ele>461.622</ele>
        <time>2019-09-27T12:09:01Z</time>
      </trkpt>
      <trkpt lat="43.96445" lon="5.13556">
        <ele>461.608</ele>
        <time>2019-09-27T12:09:02Z</time>
      </trkpt>
      <trkpt lat="43.96446" lon="5.13555">
        <ele>461.643</ele>
        <time>2019-09-27T12:09:03Z</time>
      </trkpt>
      <trkpt lat="43.9647" lon="5.13546">
        <ele>462.27</ele>
        <time>2019-09-27T12:09:23Z</time>
      </trkpt>
      <trkpt lat="43.96486" lon="5.13535">
        <ele>463.276</ele>
        <time>2019-09-27T12:09:40Z</time>
      </trkpt>
      <trkpt lat="43.96501" lon="5.13523">
        <ele>463.757</ele>
        <time>2019-09-27T12:09:54Z</time>
      </trkpt>
      <trkpt lat="43.96516" lon="5.13504">
        <ele>464.23</ele>
        <time>2019-09-27T12:10:11Z</time>
      </trkpt>
      <trkpt lat="43.96519" lon="5.13493">
        <ele>464.04</ele>
        <time>2019-09-27T12:10:27Z</time>
      </trkpt>
      <trkpt lat="43.96519" lon="5.13494">
        <ele>464.682</ele>
        <time>2019-09-27T12:10:49Z</time>
      </trkpt>
      <trkpt lat="43.96519" lon="5.13493">
        <ele>462.714</ele>
        <time>2019-09-27T12:11:13Z</time>
      </trkpt>
      <trkpt lat="43.96519" lon="5.13493">
        <ele>466.091</ele>
        <time>2019-09-27T12:11:35Z</time>
      </trkpt>
      <trkpt lat="43.96518" lon="5.13493">
        <ele>464.781</ele>
        <time>2019-09-27T12:11:52Z</time>
      </trkpt>
      <trkpt lat="43.96518" lon="5.13493">
        <ele>465.319</ele>
        <time>2019-09-27T12:12:23Z</time>
      </trkpt>
      <trkpt lat="43.96518" lon="5.13493">
        <ele>465.608</ele>
        <time>2019-09-27T12:13:03Z</time>
      </trkpt>
      <trkpt lat="43.9652" lon="5.13493">
        <ele>465.243</ele>
        <time>2019-09-27T12:13:28Z</time>
      </trkpt>
      <trkpt lat="43.9652" lon="5.13493">
        <ele>465.35</ele>
        <time>2019-09-27T12:13:46Z</time>
      </trkpt>
      <trkpt lat="43.96523" lon="5.13493">
        <ele>465.246</ele>
        <time>2019-09-27T12:13:50Z</time>
      </trkpt>
      <trkpt lat="43.96527" lon="5.13493">
        <ele>465.267</ele>
        <time>2019-09-27T12:13:54Z</time>
      </trkpt>
      <trkpt lat="43.96534" lon="5.13486">
        <ele>464.06</ele>
        <time>2019-09-27T12:14:10Z</time>
      </trkpt>
      <trkpt lat="43.96541" lon="5.13482">
        <ele>462.05</ele>
        <time>2019-09-27T12:14:26Z</time>
      </trkpt>
      <trkpt lat="43.96545" lon="5.13481">
        <ele>462.222</ele>
        <time>2019-09-27T12:14:31Z</time>
      </trkpt>
      <trkpt lat="43.96546" lon="5.13481">
        <ele>462.254</ele>
        <time>2019-09-27T12:14:32Z</time>
      </trkpt>
      <trkpt lat="43.96551" lon="5.13479">
        <ele>463.079</ele>
        <time>2019-09-27T12:14:45Z</time>
      </trkpt>
      <trkpt lat="43.96554" lon="5.1348">
        <ele>462.605</ele>
        <time>2019-09-27T12:14:48Z</time>
      </trkpt>
      <trkpt lat="43.96555" lon="5.1348">
        <ele>462.325</ele>
        <time>2019-09-27T12:14:49Z</time>
      </trkpt>
      <trkpt lat="43.96556" lon="5.1348">
        <ele>462.308</ele>
        <time>2019-09-27T12:14:50Z</time>
      </trkpt>
      <trkpt lat="43.96566" lon="5.13479">
        <ele>461.371</ele>
        <time>2019-09-27T12:15:04Z</time>
      </trkpt>
      <trkpt lat="43.96574" lon="5.13468">
        <ele>459.088</ele>
        <time>2019-09-27T12:15:19Z</time>
      </trkpt>
      <trkpt lat="43.96578" lon="5.13459">
        <ele>461.364</ele>
        <time>2019-09-27T12:15:30Z</time>
      </trkpt>
      <trkpt lat="43.96582" lon="5.13449">
        <ele>459.085</ele>
        <time>2019-09-27T12:15:43Z</time>
      </trkpt>
      <trkpt lat="43.96587" lon="5.13435">
        <ele>457.018</ele>
        <time>2019-09-27T12:15:59Z</time>
      </trkpt>
      <trkpt lat="43.96586" lon="5.13423">
        <ele>456.368</ele>
        <time>2019-09-27T12:16:14Z</time>
      </trkpt>
      <trkpt lat="43.96586" lon="5.13405">
        <ele>453.63</ele>
        <time>2019-09-27T12:16:34Z</time>
      </trkpt>
      <trkpt lat="43.96585" lon="5.134">
        <ele>452.652</ele>
        <time>2019-09-27T12:16:53Z</time>
      </trkpt>
      <trkpt lat="43.96585" lon="5.13391">
        <ele>452.065</ele>
        <time>2019-09-27T12:17:11Z</time>
      </trkpt>
      <trkpt lat="43.96584" lon="5.13382">
        <ele>451.068</ele>
        <time>2019-09-27T12:17:26Z</time>
      </trkpt>
      <trkpt lat="43.96584" lon="5.13376">
        <ele>450.014</ele>
        <time>2019-09-27T12:17:43Z</time>
      </trkpt>
      <trkpt lat="43.96584" lon="5.13369">
        <ele>448.608</ele>
        <time>2019-09-27T12:18:02Z</time>
      </trkpt>
      <trkpt lat="43.96585" lon="5.13365">
        <ele>448.02</ele>
        <time>2019-09-27T12:18:53Z</time>
      </trkpt>
      <trkpt lat="43.96587" lon="5.13353">
        <ele>446.377</ele>
        <time>2019-09-27T12:19:21Z</time>
      </trkpt>
      <trkpt lat="43.96591" lon="5.13332">
        <ele>444.033</ele>
        <time>2019-09-27T12:19:50Z</time>
      </trkpt>
      <trkpt lat="43.96593" lon="5.13312">
        <ele>442.074</ele>
        <time>2019-09-27T12:20:08Z</time>
      </trkpt>
      <trkpt lat="43.96596" lon="5.13295">
        <ele>440.747</ele>
        <time>2019-09-27T12:20:25Z</time>
      </trkpt>
      <trkpt lat="43.96603" lon="5.13281">
        <ele>439.247</ele>
        <time>2019-09-27T12:20:43Z</time>
      </trkpt>
      <trkpt lat="43.96614" lon="5.1327">
        <ele>438.079</ele>
        <time>2019-09-27T12:21:00Z</time>
      </trkpt>
      <trkpt lat="43.96622" lon="5.1326">
        <ele>437.051</ele>
        <time>2019-09-27T12:21:15Z</time>
      </trkpt>
      <trkpt lat="43.96634" lon="5.13249">
        <ele>436.275</ele>
        <time>2019-09-27T12:21:32Z</time>
      </trkpt>
      <trkpt lat="43.96643" lon="5.13237">
        <ele>435.328</ele>
        <time>2019-09-27T12:21:47Z</time>
      </trkpt>
      <trkpt lat="43.96653" lon="5.13222">
        <ele>433.32</ele>
        <time>2019-09-27T12:22:08Z</time>
      </trkpt>
      <trkpt lat="43.96657" lon="5.13212">
        <ele>432.208</ele>
        <time>2019-09-27T12:22:19Z</time>
      </trkpt>
      <trkpt lat="43.96657" lon="5.13207">
        <ele>428.751</ele>
        <time>2019-09-27T12:22:35Z</time>
      </trkpt>
      <trkpt lat="43.96657" lon="5.13204">
        <ele>432.078</ele>
        <time>2019-09-27T12:22:41Z</time>
      </trkpt>
      <trkpt lat="43.96657" lon="5.13191">
        <ele>430.654</ele>
        <time>2019-09-27T12:22:54Z</time>
      </trkpt>
      <trkpt lat="43.96654" lon="5.13172">
        <ele>428.635</ele>
        <time>2019-09-27T12:23:10Z</time>
      </trkpt>
      <trkpt lat="43.96649" lon="5.13155">
        <ele>427.298</ele>
        <time>2019-09-27T12:23:24Z</time>
      </trkpt>
      <trkpt lat="43.96646" lon="5.13142">
        <ele>425.078</ele>
        <time>2019-09-27T12:23:42Z</time>
      </trkpt>
      <trkpt lat="43.96645" lon="5.13141">
        <ele>424.72</ele>
        <time>2019-09-27T12:23:43Z</time>
      </trkpt>
      <trkpt lat="43.96647" lon="5.13144">
        <ele>427.362</ele>
        <time>2019-09-27T12:24:00Z</time>
      </trkpt>
      <trkpt lat="43.96651" lon="5.13161">
        <ele>426.771</ele>
        <time>2019-09-27T12:24:15Z</time>
      </trkpt>
      <trkpt lat="43.96654" lon="5.13171">
        <ele>428.041</ele>
        <time>2019-09-27T12:24:25Z</time>
      </trkpt>
      <trkpt lat="43.96657" lon="5.13192">
        <ele>429.715</ele>
        <time>2019-09-27T12:24:42Z</time>
      </trkpt>
      <trkpt lat="43.96661" lon="5.13199">
        <ele>430.708</ele>
        <time>2019-09-27T12:24:55Z</time>
      </trkpt>
      <trkpt lat="43.96667" lon="5.13193">
        <ele>429.391</ele>
        <time>2019-09-27T12:25:13Z</time>
      </trkpt>
      <trkpt lat="43.96674" lon="5.13179">
        <ele>427.018</ele>
        <time>2019-09-27T12:25:33Z</time>
      </trkpt>
      <trkpt lat="43.96681" lon="5.13166">
        <ele>425.054</ele>
        <time>2019-09-27T12:25:52Z</time>
      </trkpt>
      <trkpt lat="43.96689" lon="5.13158">
        <ele>423.245</ele>
        <time>2019-09-27T12:26:08Z</time>
      </trkpt>
      <trkpt lat="43.96692" lon="5.13144">
        <ele>421.388</ele>
        <time>2019-09-27T12:26:26Z</time>
      </trkpt>
      <trkpt lat="43.96696" lon="5.13134">
        <ele>420.028</ele>
        <time>2019-09-27T12:26:46Z</time>
      </trkpt>
      <trkpt lat="43.96699" lon="5.13118">
        <ele>417.74</ele>
        <time>2019-09-27T12:27:07Z</time>
      </trkpt>
      <trkpt lat="43.96701" lon="5.131">
        <ele>416.232</ele>
        <time>2019-09-27T12:27:27Z</time>
      </trkpt>
      <trkpt lat="43.96705" lon="5.13084">
        <ele>414.611</ele>
        <time>2019-09-27T12:27:49Z</time>
      </trkpt>
      <trkpt lat="43.96711" lon="5.13088">
        <ele>413.721</ele>
        <time>2019-09-27T12:28:08Z</time>
      </trkpt>
      <trkpt lat="43.96714" lon="5.13093">
        <ele>414.003</ele>
        <time>2019-09-27T12:28:23Z</time>
      </trkpt>
      <trkpt lat="43.96712" lon="5.131">
        <ele>414.708</ele>
        <time>2019-09-27T12:28:44Z</time>
      </trkpt>
      <trkpt lat="43.96712" lon="5.131">
        <ele>414.765</ele>
        <time>2019-09-27T12:29:03Z</time>
      </trkpt>
      <trkpt lat="43.96713" lon="5.131">
        <ele>414.292</ele>
        <time>2019-09-27T12:29:29Z</time>
      </trkpt>
      <trkpt lat="43.96713" lon="5.131">
        <ele>412.348</ele>
        <time>2019-09-27T12:29:43Z</time>
      </trkpt>
      <trkpt lat="43.96713" lon="5.13098">
        <ele>416.039</ele>
        <time>2019-09-27T12:29:56Z</time>
      </trkpt>
      <trkpt lat="43.96712" lon="5.13095">
        <ele>415.042</ele>
        <time>2019-09-27T12:30:04Z</time>
      </trkpt>
      <trkpt lat="43.96711" lon="5.13087">
        <ele>415.032</ele>
        <time>2019-09-27T12:30:20Z</time>
      </trkpt>
      <trkpt lat="43.96707" lon="5.1308">
        <ele>415.054</ele>
        <time>2019-09-27T12:30:38Z</time>
      </trkpt>
      <trkpt lat="43.96711" lon="5.13074">
        <ele>415.036</ele>
        <time>2019-09-27T12:30:58Z</time>
      </trkpt>
      <trkpt lat="43.96714" lon="5.13069">
        <ele>415.054</ele>
        <time>2019-09-27T12:31:13Z</time>
      </trkpt>
      <trkpt lat="43.96717" lon="5.13065">
        <ele>415.056</ele>
        <time>2019-09-27T12:31:33Z</time>
      </trkpt>
      <trkpt lat="43.96724" lon="5.13052">
        <ele>415.011</ele>
        <time>2019-09-27T12:31:54Z</time>
      </trkpt>
      <trkpt lat="43.96729" lon="5.13044">
        <ele>411.608</ele>
        <time>2019-09-27T12:32:05Z</time>
      </trkpt>
      <trkpt lat="43.96729" lon="5.13044">
        <ele>411.639</ele>
        <time>2019-09-27T12:32:06Z</time>
      </trkpt>
      <trkpt lat="43.96736" lon="5.13034">
        <ele>410.756</ele>
        <time>2019-09-27T12:32:21Z</time>
      </trkpt>
      <trkpt lat="43.96742" lon="5.13026">
        <ele>410.062</ele>
        <time>2019-09-27T12:32:34Z</time>
      </trkpt>
      <trkpt lat="43.9675" lon="5.1302">
        <ele>409.263</ele>
        <time>2019-09-27T12:32:50Z</time>
      </trkpt>
      <trkpt lat="43.96758" lon="5.13005">
        <ele>407.086</ele>
        <time>2019-09-27T12:33:15Z</time>
      </trkpt>
      <trkpt lat="43.96762" lon="5.1299">
        <ele>404.326</ele>
        <time>2019-09-27T12:33:38Z</time>
      </trkpt>
      <trkpt lat="43.96764" lon="5.12986">
        <ele>406.018</ele>
        <time>2019-09-27T12:33:46Z</time>
      </trkpt>
      <trkpt lat="43.9678" lon="5.12972">
        <ele>404.69</ele>
        <time>2019-09-27T12:34:06Z</time>
      </trkpt>
      <trkpt lat="43.96793" lon="5.12959">
        <ele>403.235</ele>
        <time>2019-09-27T12:34:22Z</time>
      </trkpt>
      <trkpt lat="43.96806" lon="5.12949">
        <ele>403.386</ele>
        <time>2019-09-27T12:34:36Z</time>
      </trkpt>
      <trkpt lat="43.96808" lon="5.12949">
        <ele>403.214</ele>
        <time>2019-09-27T12:34:37Z</time>
      </trkpt>
      <trkpt lat="43.96822" lon="5.1294">
        <ele>402.008</ele>
        <time>2019-09-27T12:34:53Z</time>
      </trkpt>
      <trkpt lat="43.96837" lon="5.1293">
        <ele>400.697</ele>
        <time>2019-09-27T12:35:08Z</time>
      </trkpt>
      <trkpt lat="43.96853" lon="5.1292">
        <ele>399.614</ele>
        <time>2019-09-27T12:35:25Z</time>
      </trkpt>
      <trkpt lat="43.96868" lon="5.1291">
        <ele>398.68</ele>
        <time>2019-09-27T12:35:42Z</time>
      </trkpt>
      <trkpt lat="43.96879" lon="5.129">
        <ele>398.051</ele>
        <time>2019-09-27T12:35:57Z</time>
      </trkpt>
      <trkpt lat="43.96895" lon="5.12889">
        <ele>397.054</ele>
        <time>2019-09-27T12:36:15Z</time>
      </trkpt>
      <trkpt lat="43.96908" lon="5.12885">
        <ele>396.014</ele>
        <time>2019-09-27T12:36:30Z</time>
      </trkpt>
      <trkpt lat="43.96928" lon="5.12885">
        <ele>394.026</ele>
        <time>2019-09-27T12:36:50Z</time>
      </trkpt>
      <trkpt lat="43.96939" lon="5.12878">
        <ele>392.638</ele>
        <time>2019-09-27T12:37:07Z</time>
      </trkpt>
      <trkpt lat="43.96942" lon="5.12876">
        <ele>393.224</ele>
        <time>2019-09-27T12:37:17Z</time>
      </trkpt>
      <trkpt lat="43.96943" lon="5.12875">
        <ele>391.604</ele>
        <time>2019-09-27T12:37:22Z</time>
      </trkpt>
      <trkpt lat="43.96943" lon="5.12875">
        <ele>388.314</ele>
        <time>2019-09-27T12:37:27Z</time>
      </trkpt>
      <trkpt lat="43.96943" lon="5.12875">
        <ele>388.208</ele>
        <time>2019-09-27T12:37:28Z</time>
      </trkpt>
      <trkpt lat="43.96943" lon="5.12875">
        <ele>392.046</ele>
        <time>2019-09-27T12:37:34Z</time>
      </trkpt>
      <trkpt lat="43.96943" lon="5.12875">
        <ele>393.673</ele>
        <time>2019-09-27T12:37:37Z</time>
      </trkpt>
      <trkpt lat="43.96943" lon="5.12875">
        <ele>390.669</ele>
        <time>2019-09-27T12:37:41Z</time>
      </trkpt>
      <trkpt lat="43.96943" lon="5.12875">
        <ele>390.69</ele>
        <time>2019-09-27T12:37:42Z</time>
      </trkpt>
      <trkpt lat="43.96942" lon="5.12874">
        <ele>394.053</ele>
        <time>2019-09-27T12:37:47Z</time>
      </trkpt>
      <trkpt lat="43.96936" lon="5.12851">
        <ele>392.393</ele>
        <time>2019-09-27T12:38:10Z</time>
      </trkpt>
      <trkpt lat="43.96937" lon="5.12844">
        <ele>392.315</ele>
        <time>2019-09-27T12:38:29Z</time>
      </trkpt>
      <trkpt lat="43.96939" lon="5.12839">
        <ele>392.317</ele>
        <time>2019-09-27T12:38:40Z</time>
      </trkpt>
      <trkpt lat="43.96946" lon="5.12833">
        <ele>392.654</ele>
        <time>2019-09-27T12:39:00Z</time>
      </trkpt>
      <trkpt lat="43.96956" lon="5.1282">
        <ele>392.256</ele>
        <time>2019-09-27T12:39:16Z</time>
      </trkpt>
      <trkpt lat="43.96954" lon="5.12805">
        <ele>392.011</ele>
        <time>2019-09-27T12:39:32Z</time>
      </trkpt>
      <trkpt lat="43.96958" lon="5.12806">
        <ele>392.208</ele>
        <time>2019-09-27T12:39:49Z</time>
      </trkpt>
      <trkpt lat="43.96955" lon="5.12795">
        <ele>391.689</ele>
        <time>2019-09-27T12:40:07Z</time>
      </trkpt>
      <trkpt lat="43.9695" lon="5.12792">
        <ele>390.666</ele>
        <time>2019-09-27T12:40:22Z</time>
      </trkpt>
      <trkpt lat="43.96945" lon="5.1279">
        <ele>390.642</ele>
        <time>2019-09-27T12:40:41Z</time>
      </trkpt>
      <trkpt lat="43.96941" lon="5.12792">
        <ele>390.083</ele>
        <time>2019-09-27T12:40:54Z</time>
      </trkpt>
      <trkpt lat="43.96936" lon="5.12792">
        <ele>388.026</ele>
        <time>2019-09-27T12:41:08Z</time>
      </trkpt>
      <trkpt lat="43.96936" lon="5.12792">
        <ele>384.726</ele>
        <time>2019-09-27T12:41:12Z</time>
      </trkpt>
      <trkpt lat="43.96936" lon="5.12792">
        <ele>387.618</ele>
        <time>2019-09-27T12:41:20Z</time>
      </trkpt>
      <trkpt lat="43.96936" lon="5.12793">
        <ele>391.07</ele>
        <time>2019-09-27T12:41:26Z</time>
      </trkpt>
      <trkpt lat="43.96935" lon="5.12794">
        <ele>393.035</ele>
        <time>2019-09-27T12:41:30Z</time>
      </trkpt>
      <trkpt lat="43.9694" lon="5.12794">
        <ele>390.386</ele>
        <time>2019-09-27T12:41:41Z</time>
      </trkpt>
      <trkpt lat="43.96942" lon="5.1281">
        <ele>390.714</ele>
        <time>2019-09-27T12:42:04Z</time>
      </trkpt>
      <trkpt lat="43.96943" lon="5.12816">
        <ele>391.308</ele>
        <time>2019-09-27T12:42:33Z</time>
      </trkpt>
      <trkpt lat="43.96941" lon="5.12798">
        <ele>392.687</ele>
        <time>2019-09-27T12:44:14Z</time>
      </trkpt>
      <trkpt lat="43.9694" lon="5.12813">
        <ele>392.624</ele>
        <time>2019-09-27T12:44:29Z</time>
      </trkpt>
      <trkpt lat="43.96936" lon="5.12818">
        <ele>392.23</ele>
        <time>2019-09-27T12:44:43Z</time>
      </trkpt>
      <trkpt lat="43.9693" lon="5.1283">
        <ele>392.021</ele>
        <time>2019-09-27T12:44:59Z</time>
      </trkpt>
      <trkpt lat="43.96921" lon="5.12824">
        <ele>391.764</ele>
        <time>2019-09-27T12:45:14Z</time>
      </trkpt>
      <trkpt lat="43.96917" lon="5.12816">
        <ele>390.634</ele>
        <time>2019-09-27T12:45:32Z</time>
      </trkpt>
      <trkpt lat="43.96912" lon="5.12803">
        <ele>388.246</ele>
        <time>2019-09-27T12:45:52Z</time>
      </trkpt>
      <trkpt lat="43.9691" lon="5.128">
        <ele>387.758</ele>
        <time>2019-09-27T12:46:08Z</time>
      </trkpt>
      <trkpt lat="43.96906" lon="5.12787">
        <ele>386.778</ele>
        <time>2019-09-27T12:46:27Z</time>
      </trkpt>
      <trkpt lat="43.96903" lon="5.12773">
        <ele>385.333</ele>
        <time>2019-09-27T12:46:44Z</time>
      </trkpt>
      <trkpt lat="43.96895" lon="5.12758">
        <ele>384.026</ele>
        <time>2019-09-27T12:47:02Z</time>
      </trkpt>
      <trkpt lat="43.96884" lon="5.12747">
        <ele>381.308</ele>
        <time>2019-09-27T12:47:20Z</time>
      </trkpt>
      <trkpt lat="43.96874" lon="5.1274">
        <ele>380.041</ele>
        <time>2019-09-27T12:47:36Z</time>
      </trkpt>
      <trkpt lat="43.96866" lon="5.12735">
        <ele>379.228</ele>
        <time>2019-09-27T12:47:53Z</time>
      </trkpt>
      <trkpt lat="43.96862" lon="5.12732">
        <ele>377.324</ele>
        <time>2019-09-27T12:48:09Z</time>
      </trkpt>
      <trkpt lat="43.96862" lon="5.12727">
        <ele>376.745</ele>
        <time>2019-09-27T12:48:23Z</time>
      </trkpt>
      <trkpt lat="43.96861" lon="5.12727">
        <ele>376.728</ele>
        <time>2019-09-27T12:48:56Z</time>
      </trkpt>
      <trkpt lat="43.96858" lon="5.12728">
        <ele>377.218</ele>
        <time>2019-09-27T12:49:38Z</time>
      </trkpt>
      <trkpt lat="43.9685" lon="5.12725">
        <ele>375.23</ele>
        <time>2019-09-27T12:49:55Z</time>
      </trkpt>
      <trkpt lat="43.96842" lon="5.12725">
        <ele>373.382</ele>
        <time>2019-09-27T12:50:09Z</time>
      </trkpt>
      <trkpt lat="43.96835" lon="5.12717">
        <ele>372.096</ele>
        <time>2019-09-27T12:50:24Z</time>
      </trkpt>
      <trkpt lat="43.96829" lon="5.12705">
        <ele>370.631</ele>
        <time>2019-09-27T12:50:39Z</time>
      </trkpt>
      <trkpt lat="43.96826" lon="5.12689">
        <ele>369.324</ele>
        <time>2019-09-27T12:50:56Z</time>
      </trkpt>
      <trkpt lat="43.96824" lon="5.12684">
        <ele>369.208</ele>
        <time>2019-09-27T12:51:00Z</time>
      </trkpt>
      <trkpt lat="43.96821" lon="5.12672">
        <ele>368.023</ele>
        <time>2019-09-27T12:51:18Z</time>
      </trkpt>
      <trkpt lat="43.96821" lon="5.1267">
        <ele>369.77</ele>
        <time>2019-09-27T12:51:31Z</time>
      </trkpt>
      <trkpt lat="43.96824" lon="5.12661">
        <ele>369.746</ele>
        <time>2019-09-27T12:51:53Z</time>
      </trkpt>
      <trkpt lat="43.96824" lon="5.1266">
        <ele>370.097</ele>
        <time>2019-09-27T12:51:54Z</time>
      </trkpt>
      <trkpt lat="43.96826" lon="5.12647">
        <ele>367.27</ele>
        <time>2019-09-27T12:52:10Z</time>
      </trkpt>
      <trkpt lat="43.96834" lon="5.12633">
        <ele>365.61</ele>
        <time>2019-09-27T12:52:25Z</time>
      </trkpt>
      <trkpt lat="43.96837" lon="5.12619">
        <ele>364.392</ele>
        <time>2019-09-27T12:52:40Z</time>
      </trkpt>
      <trkpt lat="43.96838" lon="5.12601">
        <ele>362.714</ele>
        <time>2019-09-27T12:53:01Z</time>
      </trkpt>
      <trkpt lat="43.96838" lon="5.12578">
        <ele>361.342</ele>
        <time>2019-09-27T12:53:21Z</time>
      </trkpt>
      <trkpt lat="43.96839" lon="5.12557">
        <ele>360.022</ele>
        <time>2019-09-27T12:53:39Z</time>
      </trkpt>
      <trkpt lat="43.96837" lon="5.12539">
        <ele>359.214</ele>
        <time>2019-09-27T12:53:55Z</time>
      </trkpt>
      <trkpt lat="43.96836" lon="5.12527">
        <ele>358.708</ele>
        <time>2019-09-27T12:54:13Z</time>
      </trkpt>
      <trkpt lat="43.96836" lon="5.12499">
        <ele>357.088</ele>
        <time>2019-09-27T12:54:37Z</time>
      </trkpt>
      <trkpt lat="43.96838" lon="5.12487">
        <ele>356.225</ele>
        <time>2019-09-27T12:55:00Z</time>
      </trkpt>
      <trkpt lat="43.96842" lon="5.12475">
        <ele>355.721</ele>
        <time>2019-09-27T12:55:23Z</time>
      </trkpt>
      <trkpt lat="43.96842" lon="5.12474">
        <ele>356.062</ele>
        <time>2019-09-27T12:55:53Z</time>
      </trkpt>
      <trkpt lat="43.96847" lon="5.12455">
        <ele>356.095</ele>
        <time>2019-09-27T12:56:10Z</time>
      </trkpt>
      <trkpt lat="43.96849" lon="5.1245">
        <ele>356.015</ele>
        <time>2019-09-27T12:56:14Z</time>
      </trkpt>
      <trkpt lat="43.96849" lon="5.12448">
        <ele>356.037</ele>
        <time>2019-09-27T12:56:15Z</time>
      </trkpt>
      <trkpt lat="43.9685" lon="5.12442">
        <ele>355.779</ele>
        <time>2019-09-27T12:56:31Z</time>
      </trkpt>
      <trkpt lat="43.96852" lon="5.12435">
        <ele>357.253</ele>
        <time>2019-09-27T12:56:37Z</time>
      </trkpt>
      <trkpt lat="43.96856" lon="5.12415">
        <ele>355.204</ele>
        <time>2019-09-27T12:56:58Z</time>
      </trkpt>
      <trkpt lat="43.96862" lon="5.12402">
        <ele>356.314</ele>
        <time>2019-09-27T12:57:19Z</time>
      </trkpt>
      <trkpt lat="43.96863" lon="5.12401">
        <ele>353.008</ele>
        <time>2019-09-27T12:57:29Z</time>
      </trkpt>
      <trkpt lat="43.96863" lon="5.12401">
        <ele>356.639</ele>
        <time>2019-09-27T12:57:36Z</time>
      </trkpt>
      <trkpt lat="43.96863" lon="5.12401">
        <ele>358.336</ele>
        <time>2019-09-27T12:57:38Z</time>
      </trkpt>
      <trkpt lat="43.96863" lon="5.12401">
        <ele>354.782</ele>
        <time>2019-09-27T12:57:42Z</time>
      </trkpt>
      <trkpt lat="43.96863" lon="5.12401">
        <ele>353.263</ele>
        <time>2019-09-27T12:57:45Z</time>
      </trkpt>
      <trkpt lat="43.96863" lon="5.12402">
        <ele>356.336</ele>
        <time>2019-09-27T12:57:48Z</time>
      </trkpt>
      <trkpt lat="43.96862" lon="5.12403">
        <ele>359.676</ele>
        <time>2019-09-27T12:57:52Z</time>
      </trkpt>
      <trkpt lat="43.96856" lon="5.12421">
        <ele>356.658</ele>
        <time>2019-09-27T12:58:08Z</time>
      </trkpt>
      <trkpt lat="43.96856" lon="5.12426">
        <ele>356.32</ele>
        <time>2019-09-27T12:58:12Z</time>
      </trkpt>
      <trkpt lat="43.96853" lon="5.12447">
        <ele>356.059</ele>
        <time>2019-09-27T12:58:28Z</time>
      </trkpt>
      <trkpt lat="43.9686" lon="5.1246">
        <ele>355.003</ele>
        <time>2019-09-27T12:58:46Z</time>
      </trkpt>
      <trkpt lat="43.9687" lon="5.12468">
        <ele>354.723</ele>
        <time>2019-09-27T12:59:01Z</time>
      </trkpt>
      <trkpt lat="43.96874" lon="5.12468">
        <ele>354.608</ele>
        <time>2019-09-27T12:59:05Z</time>
      </trkpt>
      <trkpt lat="43.96881" lon="5.1246">
        <ele>355.789</ele>
        <time>2019-09-27T12:59:22Z</time>
      </trkpt>
      <trkpt lat="43.96882" lon="5.12458">
        <ele>355.766</ele>
        <time>2019-09-27T12:59:23Z</time>
      </trkpt>
      <trkpt lat="43.96883" lon="5.12457">
        <ele>355.752</ele>
        <time>2019-09-27T12:59:24Z</time>
      </trkpt>
      <trkpt lat="43.96883" lon="5.12455">
        <ele>355.793</ele>
        <time>2019-09-27T12:59:25Z</time>
      </trkpt>
      <trkpt lat="43.96884" lon="5.12454">
        <ele>355.726</ele>
        <time>2019-09-27T12:59:26Z</time>
      </trkpt>
      <trkpt lat="43.96885" lon="5.12452">
        <ele>355.716</ele>
        <time>2019-09-27T12:59:27Z</time>
      </trkpt>
      <trkpt lat="43.96894" lon="5.12434">
        <ele>355.678</ele>
        <time>2019-09-27T12:59:42Z</time>
      </trkpt>
      <trkpt lat="43.969" lon="5.12428">
        <ele>355.09</ele>
        <time>2019-09-27T13:00:01Z</time>
      </trkpt>
      <trkpt lat="43.96902" lon="5.12427">
        <ele>355.082</ele>
        <time>2019-09-27T13:00:03Z</time>
      </trkpt>
      <trkpt lat="43.9691" lon="5.12425">
        <ele>357.343</ele>
        <time>2019-09-27T13:00:11Z</time>
      </trkpt>
      <trkpt lat="43.96926" lon="5.1243">
        <ele>359.317</ele>
        <time>2019-09-27T13:00:32Z</time>
      </trkpt>
      <trkpt lat="43.96939" lon="5.12438">
        <ele>361.008</ele>
        <time>2019-09-27T13:00:45Z</time>
      </trkpt>
      <trkpt lat="43.96951" lon="5.12432">
        <ele>362.642</ele>
        <time>2019-09-27T13:00:59Z</time>
      </trkpt>
      <trkpt lat="43.96962" lon="5.12423">
        <ele>364.049</ele>
        <time>2019-09-27T13:01:15Z</time>
      </trkpt>
      <trkpt lat="43.96971" lon="5.12411">
        <ele>365.245</ele>
        <time>2019-09-27T13:01:33Z</time>
      </trkpt>
      <trkpt lat="43.96972" lon="5.1241">
        <ele>365.316</ele>
        <time>2019-09-27T13:01:34Z</time>
      </trkpt>
      <trkpt lat="43.96976" lon="5.12397">
        <ele>366.069</ele>
        <time>2019-09-27T13:01:44Z</time>
      </trkpt>
      <trkpt lat="43.96977" lon="5.12396">
        <ele>366.039</ele>
        <time>2019-09-27T13:01:45Z</time>
      </trkpt>
      <trkpt lat="43.96986" lon="5.12375">
        <ele>366.211</ele>
        <time>2019-09-27T13:02:01Z</time>
      </trkpt>
      <trkpt lat="43.96996" lon="5.12351">
        <ele>366.273</ele>
        <time>2019-09-27T13:02:18Z</time>
      </trkpt>
      <trkpt lat="43.97006" lon="5.12323">
        <ele>366.784</ele>
        <time>2019-09-27T13:02:39Z</time>
      </trkpt>
      <trkpt lat="43.97015" lon="5.12303">
        <ele>367.207</ele>
        <time>2019-09-27T13:02:53Z</time>
      </trkpt>
      <trkpt lat="43.97015" lon="5.12302">
        <ele>367.217</ele>
        <time>2019-09-27T13:02:54Z</time>
      </trkpt>
      <trkpt lat="43.97015" lon="5.123">
        <ele>367.208</ele>
        <time>2019-09-27T13:02:55Z</time>
      </trkpt>
      <trkpt lat="43.97025" lon="5.1228">
        <ele>367.282</ele>
        <time>2019-09-27T13:03:10Z</time>
      </trkpt>
      <trkpt lat="43.97032" lon="5.12262">
        <ele>367.369</ele>
        <time>2019-09-27T13:03:23Z</time>
      </trkpt>
      <trkpt lat="43.97033" lon="5.12261">
        <ele>367.315</ele>
        <time>2019-09-27T13:03:24Z</time>
      </trkpt>
      <trkpt lat="43.97034" lon="5.12259">
        <ele>367.326</ele>
        <time>2019-09-27T13:03:25Z</time>
      </trkpt>
      <trkpt lat="43.97048" lon="5.12243">
        <ele>368.249</ele>
        <time>2019-09-27T13:03:42Z</time>
      </trkpt>
      <trkpt lat="43.97061" lon="5.12226">
        <ele>368.639</ele>
        <time>2019-09-27T13:03:59Z</time>
      </trkpt>
      <trkpt lat="43.97083" lon="5.12204">
        <ele>369.251</ele>
        <time>2019-09-27T13:04:21Z</time>
      </trkpt>
      <trkpt lat="43.97095" lon="5.1219">
        <ele>369.253</ele>
        <time>2019-09-27T13:04:37Z</time>
      </trkpt>
      <trkpt lat="43.97109" lon="5.12174">
        <ele>369.643</ele>
        <time>2019-09-27T13:04:53Z</time>
      </trkpt>
      <trkpt lat="43.97135" lon="5.12149">
        <ele>369.064</ele>
        <time>2019-09-27T13:05:20Z</time>
      </trkpt>
      <trkpt lat="43.97156" lon="5.12128">
        <ele>368.61</ele>
        <time>2019-09-27T13:05:41Z</time>
      </trkpt>
      <trkpt lat="43.97172" lon="5.12118">
        <ele>367.708</ele>
        <time>2019-09-27T13:05:56Z</time>
      </trkpt>
      <trkpt lat="43.9719" lon="5.12109">
        <ele>367.358</ele>
        <time>2019-09-27T13:06:13Z</time>
      </trkpt>
      <trkpt lat="43.9721" lon="5.12096">
        <ele>366.335</ele>
        <time>2019-09-27T13:06:30Z</time>
      </trkpt>
      <trkpt lat="43.97211" lon="5.12095">
        <ele>366.291</ele>
        <time>2019-09-27T13:06:31Z</time>
      </trkpt>
      <trkpt lat="43.97212" lon="5.12095">
        <ele>366.272</ele>
        <time>2019-09-27T13:06:32Z</time>
      </trkpt>
      <trkpt lat="43.97214" lon="5.12095">
        <ele>366.065</ele>
        <time>2019-09-27T13:06:33Z</time>
      </trkpt>
      <trkpt lat="43.97215" lon="5.12094">
        <ele>366.045</ele>
        <time>2019-09-27T13:06:34Z</time>
      </trkpt>
      <trkpt lat="43.97216" lon="5.12094">
        <ele>365.777</ele>
        <time>2019-09-27T13:06:35Z</time>
      </trkpt>
      <trkpt lat="43.97218" lon="5.12093">
        <ele>365.729</ele>
        <time>2019-09-27T13:06:36Z</time>
      </trkpt>
      <trkpt lat="43.97219" lon="5.12093">
        <ele>365.682</ele>
        <time>2019-09-27T13:06:37Z</time>
      </trkpt>
      <trkpt lat="43.97239" lon="5.12082">
        <ele>365.643</ele>
        <time>2019-09-27T13:06:54Z</time>
      </trkpt>
      <trkpt lat="43.97259" lon="5.12068">
        <ele>364.617</ele>
        <time>2019-09-27T13:07:12Z</time>
      </trkpt>
      <trkpt lat="43.9728" lon="5.12055">
        <ele>363.008</ele>
        <time>2019-09-27T13:07:29Z</time>
      </trkpt>
      <trkpt lat="43.97293" lon="5.12044">
        <ele>363.012</ele>
        <time>2019-09-27T13:07:42Z</time>
      </trkpt>
      <trkpt lat="43.97294" lon="5.12043">
        <ele>363.089</ele>
        <time>2019-09-27T13:07:43Z</time>
      </trkpt>
      <trkpt lat="43.97295" lon="5.12043">
        <ele>363.035</ele>
        <time>2019-09-27T13:07:44Z</time>
      </trkpt>
      <trkpt lat="43.97312" lon="5.12026">
        <ele>362.346</ele>
        <time>2019-09-27T13:08:02Z</time>
      </trkpt>
      <trkpt lat="43.97329" lon="5.12009">
        <ele>361.719</ele>
        <time>2019-09-27T13:08:18Z</time>
      </trkpt>
      <trkpt lat="43.97346" lon="5.11992">
        <ele>360.799</ele>
        <time>2019-09-27T13:08:36Z</time>
      </trkpt>
      <trkpt lat="43.97362" lon="5.11975">
        <ele>360.331</ele>
        <time>2019-09-27T13:08:54Z</time>
      </trkpt>
      <trkpt lat="43.97363" lon="5.11974">
        <ele>360.373</ele>
        <time>2019-09-27T13:08:55Z</time>
      </trkpt>
      <trkpt lat="43.97365" lon="5.11973">
        <ele>360.339</ele>
        <time>2019-09-27T13:08:56Z</time>
      </trkpt>
      <trkpt lat="43.97366" lon="5.11972">
        <ele>360.301</ele>
        <time>2019-09-27T13:08:57Z</time>
      </trkpt>
      <trkpt lat="43.97367" lon="5.11971">
        <ele>360.321</ele>
        <time>2019-09-27T13:08:58Z</time>
      </trkpt>
      <trkpt lat="43.97379" lon="5.11957">
        <ele>359.308</ele>
        <time>2019-09-27T13:09:14Z</time>
      </trkpt>
      <trkpt lat="43.97386" lon="5.1195">
        <ele>359.377</ele>
        <time>2019-09-27T13:09:36Z</time>
      </trkpt>
      <trkpt lat="43.97386" lon="5.11949">
        <ele>359.384</ele>
        <time>2019-09-27T13:09:37Z</time>
      </trkpt>
      <trkpt lat="43.97387" lon="5.11948">
        <ele>359.36</ele>
        <time>2019-09-27T13:09:38Z</time>
      </trkpt>
      <trkpt lat="43.97388" lon="5.11946">
        <ele>359.381</ele>
        <time>2019-09-27T13:09:39Z</time>
      </trkpt>
      <trkpt lat="43.97389" lon="5.11945">
        <ele>359.374</ele>
        <time>2019-09-27T13:09:40Z</time>
      </trkpt>
      <trkpt lat="43.9739" lon="5.11944">
        <ele>359.364</ele>
        <time>2019-09-27T13:09:41Z</time>
      </trkpt>
      <trkpt lat="43.97392" lon="5.11943">
        <ele>359.316</ele>
        <time>2019-09-27T13:09:42Z</time>
      </trkpt>
      <trkpt lat="43.97393" lon="5.11942">
        <ele>359.348</ele>
        <time>2019-09-27T13:09:43Z</time>
      </trkpt>
      <trkpt lat="43.97408" lon="5.11925">
        <ele>358.043</ele>
        <time>2019-09-27T13:10:00Z</time>
      </trkpt>
      <trkpt lat="43.97423" lon="5.11915">
        <ele>358.064</ele>
        <time>2019-09-27T13:10:17Z</time>
      </trkpt>
      <trkpt lat="43.97445" lon="5.11907">
        <ele>359.01</ele>
        <time>2019-09-27T13:10:37Z</time>
      </trkpt>
      <trkpt lat="43.97446" lon="5.11908">
        <ele>359.008</ele>
        <time>2019-09-27T13:10:38Z</time>
      </trkpt>
      <trkpt lat="43.97468" lon="5.11906">
        <ele>359.668</ele>
        <time>2019-09-27T13:10:54Z</time>
      </trkpt>
      <trkpt lat="43.97491" lon="5.11907">
        <ele>359.315</ele>
        <time>2019-09-27T13:11:11Z</time>
      </trkpt>
      <trkpt lat="43.97506" lon="5.11909">
        <ele>359.271</ele>
        <time>2019-09-27T13:11:28Z</time>
      </trkpt>
      <trkpt lat="43.97507" lon="5.11909">
        <ele>359.292</ele>
        <time>2019-09-27T13:11:29Z</time>
      </trkpt>
      <trkpt lat="43.97509" lon="5.11909">
        <ele>359.235</ele>
        <time>2019-09-27T13:11:30Z</time>
      </trkpt>
      <trkpt lat="43.9751" lon="5.1191">
        <ele>359.365</ele>
        <time>2019-09-27T13:11:31Z</time>
      </trkpt>
      <trkpt lat="43.97511" lon="5.1191">
        <ele>359.387</ele>
        <time>2019-09-27T13:11:32Z</time>
      </trkpt>
      <trkpt lat="43.97513" lon="5.1191">
        <ele>359.299</ele>
        <time>2019-09-27T13:11:33Z</time>
      </trkpt>
      <trkpt lat="43.97516" lon="5.1191">
        <ele>359.057</ele>
        <time>2019-09-27T13:11:48Z</time>
      </trkpt>
      <trkpt lat="43.97519" lon="5.11911">
        <ele>359.2</ele>
        <time>2019-09-27T13:11:52Z</time>
      </trkpt>
      <trkpt lat="43.97521" lon="5.11911">
        <ele>359.22</ele>
        <time>2019-09-27T13:11:54Z</time>
      </trkpt>
      <trkpt lat="43.97541" lon="5.11915">
        <ele>359.208</ele>
        <time>2019-09-27T13:12:12Z</time>
      </trkpt>
      <trkpt lat="43.97555" lon="5.11916">
        <ele>359.269</ele>
        <time>2019-09-27T13:12:24Z</time>
      </trkpt>
      <trkpt lat="43.97556" lon="5.11916">
        <ele>359.296</ele>
        <time>2019-09-27T13:12:25Z</time>
      </trkpt>
      <trkpt lat="43.97557" lon="5.11916">
        <ele>359.242</ele>
        <time>2019-09-27T13:12:26Z</time>
      </trkpt>
      <trkpt lat="43.97562" lon="5.11918">
        <ele>359.083</ele>
        <time>2019-09-27T13:12:30Z</time>
      </trkpt>
      <trkpt lat="43.97563" lon="5.11918">
        <ele>359.076</ele>
        <time>2019-09-27T13:12:31Z</time>
      </trkpt>
      <trkpt lat="43.97565" lon="5.11918">
        <ele>359.096</ele>
        <time>2019-09-27T13:12:32Z</time>
      </trkpt>
      <trkpt lat="43.97589" lon="5.11921">
        <ele>358.378</ele>
        <time>2019-09-27T13:12:51Z</time>
      </trkpt>
      <trkpt lat="43.97606" lon="5.11922">
        <ele>357.03</ele>
        <time>2019-09-27T13:13:06Z</time>
      </trkpt>
      <trkpt lat="43.9763" lon="5.11928">
        <ele>355.715</ele>
        <time>2019-09-27T13:13:27Z</time>
      </trkpt>
      <trkpt lat="43.97656" lon="5.11923">
        <ele>355.065</ele>
        <time>2019-09-27T13:13:48Z</time>
      </trkpt>
      <trkpt lat="43.97666" lon="5.1192">
        <ele>353.611</ele>
        <time>2019-09-27T13:14:03Z</time>
      </trkpt>
      <trkpt lat="43.97669" lon="5.1192">
        <ele>355.608</ele>
        <time>2019-09-27T13:14:22Z</time>
      </trkpt>
      <trkpt lat="43.9767" lon="5.11919">
        <ele>354.285</ele>
        <time>2019-09-27T13:14:51Z</time>
      </trkpt>
      <trkpt lat="43.97672" lon="5.11923">
        <ele>354.232</ele>
        <time>2019-09-27T13:15:10Z</time>
      </trkpt>
      <trkpt lat="43.97673" lon="5.11924">
        <ele>354.298</ele>
        <time>2019-09-27T13:15:11Z</time>
      </trkpt>
      <trkpt lat="43.97674" lon="5.11925">
        <ele>354.269</ele>
        <time>2019-09-27T13:15:12Z</time>
      </trkpt>
      <trkpt lat="43.97696" lon="5.11946">
        <ele>354.012</ele>
        <time>2019-09-27T13:15:36Z</time>
      </trkpt>
      <trkpt lat="43.97708" lon="5.11961">
        <ele>353.022</ele>
        <time>2019-09-27T13:15:54Z</time>
      </trkpt>
      <trkpt lat="43.97713" lon="5.11965">
        <ele>352.334</ele>
        <time>2019-09-27T13:15:59Z</time>
      </trkpt>
      <trkpt lat="43.9772" lon="5.11971">
        <ele>351.286</ele>
        <time>2019-09-27T13:16:13Z</time>
      </trkpt>
      <trkpt lat="43.97723" lon="5.11971">
        <ele>350.767</ele>
        <time>2019-09-27T13:16:32Z</time>
      </trkpt>
      <trkpt lat="43.97724" lon="5.11972">
        <ele>350.281</ele>
        <time>2019-09-27T13:16:54Z</time>
      </trkpt>
      <trkpt lat="43.97724" lon="5.11971">
        <ele>349.619</ele>
        <time>2019-09-27T13:17:14Z</time>
      </trkpt>
      <trkpt lat="43.97728" lon="5.11971">
        <ele>349.708</ele>
        <time>2019-09-27T13:17:37Z</time>
      </trkpt>
      <trkpt lat="43.97737" lon="5.11971">
        <ele>349.68</ele>
        <time>2019-09-27T13:17:55Z</time>
      </trkpt>
      <trkpt lat="43.97753" lon="5.1197">
        <ele>348.227</ele>
        <time>2019-09-27T13:18:11Z</time>
      </trkpt>
      <trkpt lat="43.97771" lon="5.11966">
        <ele>346.733</ele>
        <time>2019-09-27T13:18:29Z</time>
      </trkpt>
      <trkpt lat="43.97783" lon="5.11976">
        <ele>345.044</ele>
        <time>2019-09-27T13:18:47Z</time>
      </trkpt>
      <trkpt lat="43.97789" lon="5.11994">
        <ele>343.027</ele>
        <time>2019-09-27T13:19:03Z</time>
      </trkpt>
      <trkpt lat="43.97799" lon="5.12013">
        <ele>340.087</ele>
        <time>2019-09-27T13:19:22Z</time>
      </trkpt>
      <trkpt lat="43.97803" lon="5.12027">
        <ele>339.049</ele>
        <time>2019-09-27T13:19:34Z</time>
      </trkpt>
      <trkpt lat="43.97806" lon="5.12037">
        <ele>337.771</ele>
        <time>2019-09-27T13:19:49Z</time>
      </trkpt>
      <trkpt lat="43.97811" lon="5.12052">
        <ele>336.076</ele>
        <time>2019-09-27T13:20:05Z</time>
      </trkpt>
      <trkpt lat="43.97819" lon="5.12074">
        <ele>333.79</ele>
        <time>2019-09-27T13:20:26Z</time>
      </trkpt>
      <trkpt lat="43.97825" lon="5.12092">
        <ele>331.719</ele>
        <time>2019-09-27T13:20:44Z</time>
      </trkpt>
      <trkpt lat="43.9783" lon="5.12108">
        <ele>329.608</ele>
        <time>2019-09-27T13:21:01Z</time>
      </trkpt>
      <trkpt lat="43.97834" lon="5.12116">
        <ele>328.731</ele>
        <time>2019-09-27T13:21:15Z</time>
      </trkpt>
      <trkpt lat="43.97839" lon="5.12129">
        <ele>327.048</ele>
        <time>2019-09-27T13:21:33Z</time>
      </trkpt>
      <trkpt lat="43.97845" lon="5.12144">
        <ele>325.014</ele>
        <time>2019-09-27T13:21:50Z</time>
      </trkpt>
      <trkpt lat="43.97851" lon="5.12161">
        <ele>322.725</ele>
        <time>2019-09-27T13:22:07Z</time>
      </trkpt>
      <trkpt lat="43.97853" lon="5.1217">
        <ele>322.248</ele>
        <time>2019-09-27T13:22:23Z</time>
      </trkpt>
      <trkpt lat="43.97855" lon="5.12176">
        <ele>322.078</ele>
        <time>2019-09-27T13:22:42Z</time>
      </trkpt>
      <trkpt lat="43.97855" lon="5.12172">
        <ele>322.09</ele>
        <time>2019-09-27T13:23:01Z</time>
      </trkpt>
      <trkpt lat="43.97855" lon="5.12171">
        <ele>322.282</ele>
        <time>2019-09-27T13:23:27Z</time>
      </trkpt>
      <trkpt lat="43.97854" lon="5.12171">
        <ele>322.243</ele>
        <time>2019-09-27T13:23:47Z</time>
      </trkpt>
      <trkpt lat="43.97854" lon="5.12171">
        <ele>322.264</ele>
        <time>2019-09-27T13:24:22Z</time>
      </trkpt>
      <trkpt lat="43.97856" lon="5.12178">
        <ele>322.21</ele>
        <time>2019-09-27T13:24:41Z</time>
      </trkpt>
      <trkpt lat="43.97855" lon="5.12178">
        <ele>322.208</ele>
        <time>2019-09-27T13:25:14Z</time>
      </trkpt>
      <trkpt lat="43.97855" lon="5.12177">
        <ele>322.298</ele>
        <time>2019-09-27T13:25:54Z</time>
      </trkpt>
      <trkpt lat="43.97855" lon="5.12177">
        <ele>322.235</ele>
        <time>2019-09-27T13:26:27Z</time>
      </trkpt>
      <trkpt lat="43.97855" lon="5.12177">
        <ele>322.271</ele>
        <time>2019-09-27T13:26:59Z</time>
      </trkpt>
      <trkpt lat="43.97863" lon="5.12185">
        <ele>322.292</ele>
        <time>2019-09-27T13:27:22Z</time>
      </trkpt>
      <trkpt lat="43.9787" lon="5.1219">
        <ele>322.645</ele>
        <time>2019-09-27T13:27:31Z</time>
      </trkpt>
      <trkpt lat="43.97885" lon="5.12193">
        <ele>322.795</ele>
        <time>2019-09-27T13:27:47Z</time>
      </trkpt>
      <trkpt lat="43.97889" lon="5.12193">
        <ele>322.677</ele>
        <time>2019-09-27T13:27:51Z</time>
      </trkpt>
      <trkpt lat="43.979" lon="5.12189">
        <ele>322.219</ele>
        <time>2019-09-27T13:28:03Z</time>
      </trkpt>
      <trkpt lat="43.97914" lon="5.12181">
        <ele>322.053</ele>
        <time>2019-09-27T13:28:20Z</time>
      </trkpt>
      <trkpt lat="43.97926" lon="5.12175">
        <ele>321.304</ele>
        <time>2019-09-27T13:28:31Z</time>
      </trkpt>
      <trkpt lat="43.97945" lon="5.12154">
        <ele>320.714</ele>
        <time>2019-09-27T13:28:51Z</time>
      </trkpt>
      <trkpt lat="43.97963" lon="5.12136">
        <ele>320.008</ele>
        <time>2019-09-27T13:29:10Z</time>
      </trkpt>
      <trkpt lat="43.97979" lon="5.12124">
        <ele>318.799</ele>
        <time>2019-09-27T13:29:27Z</time>
      </trkpt>
      <trkpt lat="43.97994" lon="5.1211">
        <ele>316.766</ele>
        <time>2019-09-27T13:29:46Z</time>
      </trkpt>
      <trkpt lat="43.98006" lon="5.12098">
        <ele>314.092</ele>
        <time>2019-09-27T13:30:05Z</time>
      </trkpt>
      <trkpt lat="43.98006" lon="5.12097">
        <ele>312.643</ele>
        <time>2019-09-27T13:30:08Z</time>
      </trkpt>
      <trkpt lat="43.98012" lon="5.12098">
        <ele>315.216</ele>
        <time>2019-09-27T13:30:16Z</time>
      </trkpt>
      <trkpt lat="43.98013" lon="5.12098">
        <ele>315.226</ele>
        <time>2019-09-27T13:30:17Z</time>
      </trkpt>
      <trkpt lat="43.98026" lon="5.12104">
        <ele>314.638</ele>
        <time>2019-09-27T13:30:31Z</time>
      </trkpt>
      <trkpt lat="43.98033" lon="5.12104">
        <ele>316.21</ele>
        <time>2019-09-27T13:30:47Z</time>
      </trkpt>
      <trkpt lat="43.98036" lon="5.12103">
        <ele>316.232</ele>
        <time>2019-09-27T13:30:50Z</time>
      </trkpt>
      <trkpt lat="43.98037" lon="5.12103">
        <ele>316.092</ele>
        <time>2019-09-27T13:30:51Z</time>
      </trkpt>
      <trkpt lat="43.98052" lon="5.12099">
        <ele>315.011</ele>
        <time>2019-09-27T13:31:07Z</time>
      </trkpt>
      <trkpt lat="43.98068" lon="5.1209">
        <ele>314.208</ele>
        <time>2019-09-27T13:31:23Z</time>
      </trkpt>
      <trkpt lat="43.98083" lon="5.12083">
        <ele>313.257</ele>
        <time>2019-09-27T13:31:38Z</time>
      </trkpt>
      <trkpt lat="43.981" lon="5.12075">
        <ele>312.614</ele>
        <time>2019-09-27T13:31:55Z</time>
      </trkpt>
      <trkpt lat="43.98116" lon="5.12077">
        <ele>312.27</ele>
        <time>2019-09-27T13:32:11Z</time>
      </trkpt>
      <trkpt lat="43.98134" lon="5.12082">
        <ele>312.061</ele>
        <time>2019-09-27T13:32:27Z</time>
      </trkpt>
      <trkpt lat="43.98156" lon="5.12083">
        <ele>311.624</ele>
        <time>2019-09-27T13:32:44Z</time>
      </trkpt>
      <trkpt lat="43.98172" lon="5.12079">
        <ele>312.044</ele>
        <time>2019-09-27T13:33:00Z</time>
      </trkpt>
      <trkpt lat="43.98191" lon="5.12074">
        <ele>311.326</ele>
        <time>2019-09-27T13:33:16Z</time>
      </trkpt>
      <trkpt lat="43.98208" lon="5.12068">
        <ele>310.258</ele>
        <time>2019-09-27T13:33:32Z</time>
      </trkpt>
      <trkpt lat="43.98226" lon="5.12062">
        <ele>308.387</ele>
        <time>2019-09-27T13:33:49Z</time>
      </trkpt>
      <trkpt lat="43.98244" lon="5.12056">
        <ele>307.342</ele>
        <time>2019-09-27T13:34:05Z</time>
      </trkpt>
      <trkpt lat="43.98259" lon="5.12051">
        <ele>306.326</ele>
        <time>2019-09-27T13:34:23Z</time>
      </trkpt>
      <trkpt lat="43.98285" lon="5.12052">
        <ele>306.608</ele>
        <time>2019-09-27T13:34:49Z</time>
      </trkpt>
      <trkpt lat="43.98292" lon="5.12051">
        <ele>306.332</ele>
        <time>2019-09-27T13:34:59Z</time>
      </trkpt>
      <trkpt lat="43.98297" lon="5.12048">
        <ele>306.299</ele>
        <time>2019-09-27T13:35:17Z</time>
      </trkpt>
      <trkpt lat="43.98308" lon="5.12045">
        <ele>304.645</ele>
        <time>2019-09-27T13:35:38Z</time>
      </trkpt>
      <trkpt lat="43.98314" lon="5.12053">
        <ele>303.346</ele>
        <time>2019-09-27T13:35:54Z</time>
      </trkpt>
      <trkpt lat="43.98322" lon="5.12056">
        <ele>303.249</ele>
        <time>2019-09-27T13:36:33Z</time>
      </trkpt>
      <trkpt lat="43.98322" lon="5.12057">
        <ele>303.679</ele>
        <time>2019-09-27T13:36:53Z</time>
      </trkpt>
      <trkpt lat="43.98323" lon="5.12058">
        <ele>303.721</ele>
        <time>2019-09-27T13:37:08Z</time>
      </trkpt>
      <trkpt lat="43.98329" lon="5.12054">
        <ele>304.073</ele>
        <time>2019-09-27T13:37:16Z</time>
      </trkpt>
      <trkpt lat="43.98329" lon="5.12053">
        <ele>303.758</ele>
        <time>2019-09-27T13:37:17Z</time>
      </trkpt>
      <trkpt lat="43.98331" lon="5.12053">
        <ele>303.752</ele>
        <time>2019-09-27T13:37:18Z</time>
      </trkpt>
      <trkpt lat="43.98337" lon="5.1205">
        <ele>303.317</ele>
        <time>2019-09-27T13:37:24Z</time>
      </trkpt>
      <trkpt lat="43.98342" lon="5.12042">
        <ele>302.708</ele>
        <time>2019-09-27T13:37:40Z</time>
      </trkpt>
      <trkpt lat="43.98342" lon="5.12037">
        <ele>303.069</ele>
        <time>2019-09-27T13:37:50Z</time>
      </trkpt>
      <trkpt lat="43.98341" lon="5.12019">
        <ele>303.086</ele>
        <time>2019-09-27T13:38:06Z</time>
      </trkpt>
      <trkpt lat="43.98339" lon="5.12021">
        <ele>303.292</ele>
        <time>2019-09-27T13:38:22Z</time>
      </trkpt>
      <trkpt lat="43.9834" lon="5.12017">
        <ele>303.093</ele>
        <time>2019-09-27T13:38:27Z</time>
      </trkpt>
      <trkpt lat="43.98341" lon="5.12015">
        <ele>303.046</ele>
        <time>2019-09-27T13:38:29Z</time>
      </trkpt>
      <trkpt lat="43.98342" lon="5.12005">
        <ele>302.776</ele>
        <time>2019-09-27T13:38:48Z</time>
      </trkpt>
      <trkpt lat="43.98342" lon="5.12002">
        <ele>302.018</ele>
        <time>2019-09-27T13:39:00Z</time>
      </trkpt>
      <trkpt lat="43.98341" lon="5.12003">
        <ele>301.73</ele>
        <time>2019-09-27T13:39:12Z</time>
      </trkpt>
      <trkpt lat="43.98333" lon="5.12001">
        <ele>301.629</ele>
        <time>2019-09-27T13:39:22Z</time>
      </trkpt>
      <trkpt lat="43.98322" lon="5.12">
        <ele>301.3</ele>
        <time>2019-09-27T13:39:36Z</time>
      </trkpt>
      <trkpt lat="43.98315" lon="5.11999">
        <ele>301.02</ele>
        <time>2019-09-27T13:39:49Z</time>
      </trkpt>
      <trkpt lat="43.98317" lon="5.11999">
        <ele>299.608</ele>
        <time>2019-09-27T13:40:23Z</time>
      </trkpt>
      <trkpt lat="43.98317" lon="5.11999">
        <ele>297.256</ele>
        <time>2019-09-27T13:40:29Z</time>
      </trkpt>
      <trkpt lat="43.98317" lon="5.11999">
        <ele>300.283</ele>
        <time>2019-09-27T13:40:46Z</time>
      </trkpt>
      <trkpt lat="43.98318" lon="5.12001">
        <ele>303.669</ele>
        <time>2019-09-27T13:40:51Z</time>
      </trkpt>
      <trkpt lat="43.98318" lon="5.12002">
        <ele>303.73</ele>
        <time>2019-09-27T13:40:52Z</time>
      </trkpt>
      <trkpt lat="43.98317" lon="5.12009">
        <ele>300.793</ele>
        <time>2019-09-27T13:41:02Z</time>
      </trkpt>
      <trkpt lat="43.98323" lon="5.12016">
        <ele>301.713</ele>
        <time>2019-09-27T13:41:18Z</time>
      </trkpt>
      <trkpt lat="43.98332" lon="5.12022">
        <ele>302.655</ele>
        <time>2019-09-27T13:41:34Z</time>
      </trkpt>
      <trkpt lat="43.98336" lon="5.12031">
        <ele>302.767</ele>
        <time>2019-09-27T13:41:50Z</time>
      </trkpt>
      <trkpt lat="43.98337" lon="5.12049">
        <ele>302.666</ele>
        <time>2019-09-27T13:42:06Z</time>
      </trkpt>
      <trkpt lat="43.98333" lon="5.12054">
        <ele>302.729</ele>
        <time>2019-09-27T13:42:13Z</time>
      </trkpt>
      <trkpt lat="43.98324" lon="5.12058">
        <ele>302.721</ele>
        <time>2019-09-27T13:42:25Z</time>
      </trkpt>
      <trkpt lat="43.98323" lon="5.1206">
        <ele>303.208</ele>
        <time>2019-09-27T13:42:47Z</time>
      </trkpt>
      <trkpt lat="43.98323" lon="5.12061">
        <ele>303.72</ele>
        <time>2019-09-27T13:43:22Z</time>
      </trkpt>
      <trkpt lat="43.98323" lon="5.12061">
        <ele>303.247</ele>
        <time>2019-09-27T13:43:52Z</time>
      </trkpt>
      <trkpt lat="43.98323" lon="5.12061">
        <ele>303.263</ele>
        <time>2019-09-27T13:45:19Z</time>
      </trkpt>
      <trkpt lat="43.98323" lon="5.12061">
        <ele>303.274</ele>
        <time>2019-09-27T13:46:46Z</time>
      </trkpt>
      <trkpt lat="43.98322" lon="5.12061">
        <ele>303.217</ele>
        <time>2019-09-27T13:48:38Z</time>
      </trkpt>
      <trkpt lat="43.98324" lon="5.12059">
        <ele>303.237</ele>
        <time>2019-09-27T13:49:12Z</time>
      </trkpt>
      <trkpt lat="43.98325" lon="5.12061">
        <ele>303.259</ele>
        <time>2019-09-27T13:49:33Z</time>
      </trkpt>
      <trkpt lat="43.98331" lon="5.12068">
        <ele>303.251</ele>
        <time>2019-09-27T13:49:51Z</time>
      </trkpt>
      <trkpt lat="43.98333" lon="5.1207">
        <ele>303.243</ele>
        <time>2019-09-27T13:50:08Z</time>
      </trkpt>
      <trkpt lat="43.98334" lon="5.12071">
        <ele>303.264</ele>
        <time>2019-09-27T13:50:24Z</time>
      </trkpt>
      <trkpt lat="43.98334" lon="5.12077">
        <ele>303.21</ele>
        <time>2019-09-27T13:50:57Z</time>
      </trkpt>
      <trkpt lat="43.9833" lon="5.12099">
        <ele>303.208</ele>
        <time>2019-09-27T13:51:18Z</time>
      </trkpt>
      <trkpt lat="43.9833" lon="5.12108">
        <ele>305.688</ele>
        <time>2019-09-27T13:51:25Z</time>
      </trkpt>
      <trkpt lat="43.98327" lon="5.12121">
        <ele>305.675</ele>
        <time>2019-09-27T13:51:37Z</time>
      </trkpt>
      <trkpt lat="43.98319" lon="5.12143">
        <ele>304.731</ele>
        <time>2019-09-27T13:51:57Z</time>
      </trkpt>
      <trkpt lat="43.98314" lon="5.12159">
        <ele>304.392</ele>
        <time>2019-09-27T13:52:09Z</time>
      </trkpt>
      <trkpt lat="43.98307" lon="5.12182">
        <ele>304.095</ele>
        <time>2019-09-27T13:52:26Z</time>
      </trkpt>
      <trkpt lat="43.98301" lon="5.12197">
        <ele>304.015</ele>
        <time>2019-09-27T13:52:45Z</time>
      </trkpt>
      <trkpt lat="43.98296" lon="5.12211">
        <ele>304.077</ele>
        <time>2019-09-27T13:52:58Z</time>
      </trkpt>
      <trkpt lat="43.98294" lon="5.12226">
        <ele>303.659</ele>
        <time>2019-09-27T13:53:14Z</time>
      </trkpt>
      <trkpt lat="43.98293" lon="5.12237">
        <ele>302.026</ele>
        <time>2019-09-27T13:53:26Z</time>
      </trkpt>
      <trkpt lat="43.98292" lon="5.12256">
        <ele>300.347</ele>
        <time>2019-09-27T13:53:44Z</time>
      </trkpt>
      <trkpt lat="43.98293" lon="5.12267">
        <ele>299.611</ele>
        <time>2019-09-27T13:53:57Z</time>
      </trkpt>
      <trkpt lat="43.98291" lon="5.12282">
        <ele>297.608</ele>
        <time>2019-09-27T13:54:16Z</time>
      </trkpt>
      <trkpt lat="43.98292" lon="5.12287">
        <ele>295.656</ele>
        <time>2019-09-27T13:54:37Z</time>
      </trkpt>
      <trkpt lat="43.98302" lon="5.12281">
        <ele>294.653</ele>
        <time>2019-09-27T13:54:58Z</time>
      </trkpt>
      <trkpt lat="43.98304" lon="5.1227">
        <ele>293.369</ele>
        <time>2019-09-27T13:55:13Z</time>
      </trkpt>
      <trkpt lat="43.98304" lon="5.12259">
        <ele>292.02</ele>
        <time>2019-09-27T13:55:29Z</time>
      </trkpt>
      <trkpt lat="43.98308" lon="5.12247">
        <ele>289.333</ele>
        <time>2019-09-27T13:55:50Z</time>
      </trkpt>
      <trkpt lat="43.98312" lon="5.12251">
        <ele>287.223</ele>
        <time>2019-09-27T13:56:08Z</time>
      </trkpt>
      <trkpt lat="43.98311" lon="5.12265">
        <ele>285.385</ele>
        <time>2019-09-27T13:56:25Z</time>
      </trkpt>
      <trkpt lat="43.98315" lon="5.12275">
        <ele>283.637</ele>
        <time>2019-09-27T13:56:42Z</time>
      </trkpt>
      <trkpt lat="43.98322" lon="5.12274">
        <ele>281.342</ele>
        <time>2019-09-27T13:57:02Z</time>
      </trkpt>
      <trkpt lat="43.98328" lon="5.12271">
        <ele>279.722</ele>
        <time>2019-09-27T13:57:21Z</time>
      </trkpt>
      <trkpt lat="43.98335" lon="5.12264">
        <ele>278.214</ele>
        <time>2019-09-27T13:57:40Z</time>
      </trkpt>
      <trkpt lat="43.98343" lon="5.12259">
        <ele>276.008</ele>
        <time>2019-09-27T13:58:00Z</time>
      </trkpt>
      <trkpt lat="43.98347" lon="5.12253">
        <ele>273.718</ele>
        <time>2019-09-27T13:58:19Z</time>
      </trkpt>
      <trkpt lat="43.98347" lon="5.12253">
        <ele>270.025</ele>
        <time>2019-09-27T13:58:27Z</time>
      </trkpt>
      <trkpt lat="43.98347" lon="5.12253">
        <ele>270.251</ele>
        <time>2019-09-27T13:58:28Z</time>
      </trkpt>
      <trkpt lat="43.98347" lon="5.12253">
        <ele>273.342</ele>
        <time>2019-09-27T13:58:34Z</time>
      </trkpt>
      <trkpt lat="43.98349" lon="5.12253">
        <ele>274.385</ele>
        <time>2019-09-27T13:58:54Z</time>
      </trkpt>
      <trkpt lat="43.98356" lon="5.12236">
        <ele>272.615</ele>
        <time>2019-09-27T13:59:11Z</time>
      </trkpt>
      <trkpt lat="43.98363" lon="5.12209">
        <ele>272.387</ele>
        <time>2019-09-27T13:59:35Z</time>
      </trkpt>
      <trkpt lat="43.9837" lon="5.12184">
        <ele>271.319</ele>
        <time>2019-09-27T13:59:57Z</time>
      </trkpt>
      <trkpt lat="43.98376" lon="5.12168">
        <ele>270.675</ele>
        <time>2019-09-27T14:00:12Z</time>
      </trkpt>
      <trkpt lat="43.98379" lon="5.12156">
        <ele>269.328</ele>
        <time>2019-09-27T14:00:28Z</time>
      </trkpt>
      <trkpt lat="43.98386" lon="5.12142">
        <ele>268.72</ele>
        <time>2019-09-27T14:00:44Z</time>
      </trkpt>
      <trkpt lat="43.98397" lon="5.1212">
        <ele>267.608</ele>
        <time>2019-09-27T14:01:06Z</time>
      </trkpt>
      <trkpt lat="43.98405" lon="5.12104">
        <ele>266.781</ele>
        <time>2019-09-27T14:01:25Z</time>
      </trkpt>
      <trkpt lat="43.98411" lon="5.12082">
        <ele>265.358</ele>
        <time>2019-09-27T14:01:48Z</time>
      </trkpt>
      <trkpt lat="43.98415" lon="5.12071">
        <ele>264.734</ele>
        <time>2019-09-27T14:01:57Z</time>
      </trkpt>
      <trkpt lat="43.98419" lon="5.1205">
        <ele>263.765</ele>
        <time>2019-09-27T14:02:13Z</time>
      </trkpt>
      <trkpt lat="43.98423" lon="5.12041">
        <ele>263.728</ele>
        <time>2019-09-27T14:02:28Z</time>
      </trkpt>
      <trkpt lat="43.98422" lon="5.12025">
        <ele>263.648</ele>
        <time>2019-09-27T14:02:43Z</time>
      </trkpt>
      <trkpt lat="43.98423" lon="5.12011">
        <ele>263.28</ele>
        <time>2019-09-27T14:02:53Z</time>
      </trkpt>
      <trkpt lat="43.98422" lon="5.11993">
        <ele>263.032</ele>
        <time>2019-09-27T14:03:08Z</time>
      </trkpt>
      <trkpt lat="43.98422" lon="5.11986">
        <ele>263.077</ele>
        <time>2019-09-27T14:03:25Z</time>
      </trkpt>
      <trkpt lat="43.98422" lon="5.11986">
        <ele>262.261</ele>
        <time>2019-09-27T14:04:02Z</time>
      </trkpt>
      <trkpt lat="43.98422" lon="5.11986">
        <ele>261.627</ele>
        <time>2019-09-27T14:04:51Z</time>
      </trkpt>
      <trkpt lat="43.98422" lon="5.11985">
        <ele>262.008</ele>
        <time>2019-09-27T14:05:41Z</time>
      </trkpt>
      <trkpt lat="43.98422" lon="5.11985">
        <ele>262.061</ele>
        <time>2019-09-27T14:06:13Z</time>
      </trkpt>
      <trkpt lat="43.98421" lon="5.11977">
        <ele>261.618</ele>
        <time>2019-09-27T14:06:31Z</time>
      </trkpt>
      <trkpt lat="43.98416" lon="5.11975">
        <ele>262.034</ele>
        <time>2019-09-27T14:06:47Z</time>
      </trkpt>
      <trkpt lat="43.98413" lon="5.11971">
        <ele>264.295</ele>
        <time>2019-09-27T14:07:06Z</time>
      </trkpt>
      <trkpt lat="43.98407" lon="5.11962">
        <ele>266.228</ele>
        <time>2019-09-27T14:07:39Z</time>
      </trkpt>
      <trkpt lat="43.98405" lon="5.11959">
        <ele>267.068</ele>
        <time>2019-09-27T14:08:00Z</time>
      </trkpt>
      <trkpt lat="43.98401" lon="5.11953">
        <ele>267.31</ele>
        <time>2019-09-27T14:08:19Z</time>
      </trkpt>
      <trkpt lat="43.98398" lon="5.1195">
        <ele>268.672</ele>
        <time>2019-09-27T14:08:31Z</time>
      </trkpt>
      <trkpt lat="43.98391" lon="5.11951">
        <ele>270.024</ele>
        <time>2019-09-27T14:08:48Z</time>
      </trkpt>
      <trkpt lat="43.98382" lon="5.1195">
        <ele>273.004</ele>
        <time>2019-09-27T14:09:10Z</time>
      </trkpt>
      <trkpt lat="43.98375" lon="5.11959">
        <ele>275.714</ele>
        <time>2019-09-27T14:09:34Z</time>
      </trkpt>
      <trkpt lat="43.98377" lon="5.1197">
        <ele>277.208</ele>
        <time>2019-09-27T14:09:54Z</time>
      </trkpt>
      <trkpt lat="43.98377" lon="5.11986">
        <ele>279.256</ele>
        <time>2019-09-27T14:10:15Z</time>
      </trkpt>
      <trkpt lat="43.98375" lon="5.11991">
        <ele>280.693</ele>
        <time>2019-09-27T14:10:33Z</time>
      </trkpt>
      <trkpt lat="43.98374" lon="5.11994">
        <ele>283.739</ele>
        <time>2019-09-27T14:10:55Z</time>
      </trkpt>
      <trkpt lat="43.98364" lon="5.11981">
        <ele>284.71</ele>
        <time>2019-09-27T14:11:15Z</time>
      </trkpt>
      <trkpt lat="43.98354" lon="5.11982">
        <ele>284.333</ele>
        <time>2019-09-27T14:11:30Z</time>
      </trkpt>
      <trkpt lat="43.98352" lon="5.11984">
        <ele>284.273</ele>
        <time>2019-09-27T14:11:57Z</time>
      </trkpt>
      <trkpt lat="43.98345" lon="5.11988">
        <ele>284.285</ele>
        <time>2019-09-27T14:12:09Z</time>
      </trkpt>
      <trkpt lat="43.98338" lon="5.11991">
        <ele>284.397</ele>
        <time>2019-09-27T14:12:33Z</time>
      </trkpt>
      <trkpt lat="43.98337" lon="5.11996">
        <ele>285.253</ele>
        <time>2019-09-27T14:12:55Z</time>
      </trkpt>
      <trkpt lat="43.98341" lon="5.11992">
        <ele>284.204</ele>
        <time>2019-09-27T14:13:20Z</time>
      </trkpt>
      <trkpt lat="43.98333" lon="5.11978">
        <ele>281.214</ele>
        <time>2019-09-27T14:13:49Z</time>
      </trkpt>
      <trkpt lat="43.98334" lon="5.11969">
        <ele>278.308</ele>
        <time>2019-09-27T14:14:04Z</time>
      </trkpt>
      <trkpt lat="43.98335" lon="5.11961">
        <ele>276.779</ele>
        <time>2019-09-27T14:14:18Z</time>
      </trkpt>
      <trkpt lat="43.98344" lon="5.11958">
        <ele>276.696</ele>
        <time>2019-09-27T14:14:44Z</time>
      </trkpt>
      <trkpt lat="43.9835" lon="5.11958">
        <ele>276.652</ele>
        <time>2019-09-27T14:15:04Z</time>
      </trkpt>
      <trkpt lat="43.9836" lon="5.11955">
        <ele>276.223</ele>
        <time>2019-09-27T14:15:23Z</time>
      </trkpt>
      <trkpt lat="43.9837" lon="5.1195">
        <ele>275.716</ele>
        <time>2019-09-27T14:15:40Z</time>
      </trkpt>
      <trkpt lat="43.98376" lon="5.11946">
        <ele>273.756</ele>
        <time>2019-09-27T14:16:03Z</time>
      </trkpt>
      <trkpt lat="43.98381" lon="5.11948">
        <ele>272.688</ele>
        <time>2019-09-27T14:16:20Z</time>
      </trkpt>
      <trkpt lat="43.98389" lon="5.11947">
        <ele>270.74</ele>
        <time>2019-09-27T14:16:39Z</time>
      </trkpt>
      <trkpt lat="43.98394" lon="5.11951">
        <ele>269.383</ele>
        <time>2019-09-27T14:16:55Z</time>
      </trkpt>
      <trkpt lat="43.98402" lon="5.11962">
        <ele>267.725</ele>
        <time>2019-09-27T14:17:15Z</time>
      </trkpt>
      <trkpt lat="43.9841" lon="5.11976">
        <ele>265.017</ele>
        <time>2019-09-27T14:17:40Z</time>
      </trkpt>
      <trkpt lat="43.98412" lon="5.11962">
        <ele>264.008</ele>
        <time>2019-09-27T14:17:56Z</time>
      </trkpt>
      <trkpt lat="43.9841" lon="5.11956">
        <ele>264.272</ele>
        <time>2019-09-27T14:18:01Z</time>
      </trkpt>
      <trkpt lat="43.984" lon="5.11936">
        <ele>264.019</ele>
        <time>2019-09-27T14:18:20Z</time>
      </trkpt>
      <trkpt lat="43.9839" lon="5.11922">
        <ele>263.725</ele>
        <time>2019-09-27T14:18:36Z</time>
      </trkpt>
      <trkpt lat="43.98379" lon="5.1192">
        <ele>263.276</ele>
        <time>2019-09-27T14:18:46Z</time>
      </trkpt>
      <trkpt lat="43.98378" lon="5.1192">
        <ele>263.279</ele>
        <time>2019-09-27T14:18:47Z</time>
      </trkpt>
      <trkpt lat="43.98362" lon="5.11917">
        <ele>262.779</ele>
        <time>2019-09-27T14:19:06Z</time>
      </trkpt>
      <trkpt lat="43.98347" lon="5.1192">
        <ele>262.621</ele>
        <time>2019-09-27T14:19:24Z</time>
      </trkpt>
      <trkpt lat="43.98349" lon="5.11913">
        <ele>262.053</ele>
        <time>2019-09-27T14:19:38Z</time>
      </trkpt>
      <trkpt lat="43.98355" lon="5.11906">
        <ele>260.033</ele>
        <time>2019-09-27T14:19:54Z</time>
      </trkpt>
      <trkpt lat="43.98349" lon="5.11909">
        <ele>259.023</ele>
        <time>2019-09-27T14:20:10Z</time>
      </trkpt>
      <trkpt lat="43.98344" lon="5.11902">
        <ele>258.215</ele>
        <time>2019-09-27T14:20:19Z</time>
      </trkpt>
      <trkpt lat="43.98339" lon="5.11902">
        <ele>257.708</ele>
        <time>2019-09-27T14:20:35Z</time>
      </trkpt>
      <trkpt lat="43.98339" lon="5.11903">
        <ele>258.647</ele>
        <time>2019-09-27T14:20:56Z</time>
      </trkpt>
      <trkpt lat="43.98338" lon="5.11903">
        <ele>259.224</ele>
        <time>2019-09-27T14:21:16Z</time>
      </trkpt>
      <trkpt lat="43.98338" lon="5.11903">
        <ele>260.08</ele>
        <time>2019-09-27T14:21:59Z</time>
      </trkpt>
      <trkpt lat="43.98339" lon="5.11904">
        <ele>260.051</ele>
        <time>2019-09-27T14:22:24Z</time>
      </trkpt>
      <trkpt lat="43.98339" lon="5.11905">
        <ele>260.094</ele>
        <time>2019-09-27T14:22:55Z</time>
      </trkpt>
      <trkpt lat="43.98336" lon="5.11897">
        <ele>259.784</ele>
        <time>2019-09-27T14:23:25Z</time>
      </trkpt>
      <trkpt lat="43.98336" lon="5.11898">
        <ele>257.796</ele>
        <time>2019-09-27T14:23:30Z</time>
      </trkpt>
      <trkpt lat="43.98336" lon="5.11898">
        <ele>254.348</ele>
        <time>2019-09-27T14:23:35Z</time>
      </trkpt>
      <trkpt lat="43.98336" lon="5.11898">
        <ele>254.382</ele>
        <time>2019-09-27T14:23:36Z</time>
      </trkpt>
      <trkpt lat="43.98336" lon="5.11898">
        <ele>257.343</ele>
        <time>2019-09-27T14:23:44Z</time>
      </trkpt>
      <trkpt lat="43.98337" lon="5.11898">
        <ele>260.617</ele>
        <time>2019-09-27T14:23:57Z</time>
      </trkpt>
      <trkpt lat="43.98337" lon="5.11899">
        <ele>260.708</ele>
        <time>2019-09-27T14:24:00Z</time>
      </trkpt>
    </trkseg>
  </trk>
</gpx>